Wetterdaten: Montag, 15.05.2023
Datum Zeit Temp. Aussen Temp. o. S. Temp +5cm Feuchte Auss Luftdruck Regen Sonnenschein Regendauer Solar Windben Empfang
15.05.2023 00:00 15,9 C 14,4 C 11,1 C 79 % 1015,1 hPa 0,0 l/m 0 min 0 min 0 W/m 9,7 km/h (2 Bft) 93,88 %
15.05.2023 00:02 15,9 C 14,4 C 11,1 C 79 % 1015,1 hPa 0,0 l/m 0 min 0 min 0 W/m 3,2 km/h (1 Bft) 9,52 %
15.05.2023 00:04 15,8 C 14,4 C 11,1 C 80 % 1015,1 hPa 0,0 l/m 0 min 0 min 0 W/m 19,3 km/h (3 Bft) 91,67 %
15.05.2023 00:07 15,8 C 14,4 C 11,1 C 81 % 1015,1 hPa 0,0 l/m 0 min 0 min 0 W/m 9,7 km/h (2 Bft) 91,67 %
15.05.2023 00:08 15,8 C 14,4 C 11,1 C 81 % 1015,1 hPa 0,0 l/m 0 min 0 min 0 W/m 12,9 km/h (3 Bft) 95,74 %
15.05.2023 00:12 15,7 C 14,4 C 11,1 C 82 % 1015,1 hPa 0,0 l/m 0 min 0 min 0 W/m 6,4 km/h (2 Bft) 94,00 %
15.05.2023 00:14 15,7 C 14,4 C 11,1 C 82 % 1015,1 hPa 0,0 l/m 0 min 0 min 0 W/m 9,7 km/h (2 Bft) 100,00 %
15.05.2023 00:16 15,6 C 14,4 C 11,1 C 83 % 1015,1 hPa 0,0 l/m 0 min 0 min 0 W/m 9,7 km/h (2 Bft) 95,74 %
15.05.2023 00:18 15,6 C 14,4 C 10,6 C 83 % 1015,1 hPa 0,0 l/m 0 min 0 min 0 W/m 6,4 km/h (2 Bft) 100,00 %
15.05.2023 00:20 15,6 C 14,4 C 10,6 C 83 % 1015,1 hPa 0,0 l/m 0 min 0 min 0 W/m 9,7 km/h (2 Bft) 97,87 %
15.05.2023 00:22 15,6 C 13,9 C 10,6 C 83 % 1015,1 hPa 0,0 l/m 0 min 0 min 0 W/m 12,9 km/h (3 Bft) 97,87 %
15.05.2023 00:24 15,5 C 14,4 C 10,6 C 84 % 1015,2 hPa 0,0 l/m 0 min 0 min 0 W/m 12,9 km/h (3 Bft) 100,00 %
15.05.2023 00:26 15,5 C 13,9 C 10,6 C 84 % 1015,1 hPa 0,0 l/m 0 min 0 min 0 W/m 6,4 km/h (2 Bft) 97,92 %
15.05.2023 00:28 15,4 C 13,9 C 10,6 C 84 % 1015,1 hPa 0,0 l/m 0 min 0 min 0 W/m 9,7 km/h (2 Bft) 97,87 %
15.05.2023 00:30 15,4 C 13,9 C 10,6 C 85 % 1015,0 hPa 0,0 l/m 0 min 0 min 0 W/m 12,9 km/h (3 Bft) 97,92 %
15.05.2023 00:32 15,4 C 13,9 C 10,6 C 85 % 1015,0 hPa 0,0 l/m 0 min 0 min 0 W/m 9,7 km/h (2 Bft) 97,87 %
15.05.2023 00:34 15,3 C 13,9 C 10,6 C 85 % 1015,0 hPa 0,0 l/m 0 min 0 min 0 W/m 6,4 km/h (2 Bft) 97,87 %
15.05.2023 00:36 15,3 C 13,9 C 10,6 C 85 % 1015,0 hPa 0,0 l/m 0 min 0 min 0 W/m 12,9 km/h (3 Bft) 97,83 %
15.05.2023 00:38 15,3 C 13,9 C 10,6 C 86 % 1015,0 hPa 0,0 l/m 0 min 0 min 0 W/m 9,7 km/h (2 Bft) 100,00 %
15.05.2023 00:40 15,3 C 13,9 C 10,6 C 86 % 1015,0 hPa 0,0 l/m 0 min 0 min 0 W/m 6,4 km/h (2 Bft) 100,00 %
15.05.2023 00:42 15,2 C 13,9 C 10,6 C 86 % 1015,0 hPa 0,0 l/m 0 min 0 min 0 W/m 6,4 km/h (2 Bft) 100,00 %
15.05.2023 00:44 15,2 C 13,9 C 10,6 C 87 % 1014,9 hPa 0,0 l/m 0 min 0 min 0 W/m 6,4 km/h (2 Bft) 97,92 %
15.05.2023 00:46 15,2 C 13,9 C 10,6 C 87 % 1014,9 hPa 0,0 l/m 0 min 0 min 0 W/m 6,4 km/h (2 Bft) 97,87 %
15.05.2023 00:48 15,1 C 13,9 C 10,6 C 87 % 1014,9 hPa 0,0 l/m 0 min 0 min 0 W/m 6,4 km/h (2 Bft) 100,00 %
15.05.2023 00:50 15,1 C 13,9 C 10,6 C 87 % 1014,9 hPa 0,0 l/m 0 min 0 min 0 W/m 6,4 km/h (2 Bft) 100,00 %
15.05.2023 00:52 15,1 C 13,9 C 10,6 C 87 % 1014,8 hPa 0,0 l/m 0 min 0 min 0 W/m 12,9 km/h (3 Bft) 100,00 %
15.05.2023 00:54 15,1 C 13,9 C 10,0 C 87 % 1014,8 hPa 0,0 l/m 0 min 0 min 0 W/m 6,4 km/h (2 Bft) 97,87 %
15.05.2023 00:56 15,0 C 13,9 C 10,6 C 88 % 1014,9 hPa 0,0 l/m 0 min 0 min 0 W/m 6,4 km/h (2 Bft) 97,87 %
15.05.2023 00:58 14,9 C 13,3 C 10,0 C 88 % 1014,8 hPa 0,0 l/m 0 min 0 min 0 W/m 9,7 km/h (2 Bft) 100,00 %
15.05.2023 01:00 14,9 C 13,3 C 10,0 C 88 % 1014,8 hPa 0,0 l/m 0 min 0 min 0 W/m 6,4 km/h (2 Bft) 100,00 %
15.05.2023 01:02 14,9 C 13,3 C 10,0 C 88 % 1014,8 hPa 0,0 l/m 0 min 0 min 0 W/m 6,4 km/h (2 Bft) 97,87 %
15.05.2023 01:04 14,8 C 13,3 C 10,0 C 89 % 1014,8 hPa 0,0 l/m 0 min 0 min 0 W/m 9,7 km/h (2 Bft) 100,00 %
15.05.2023 01:06 14,8 C 13,3 C 10,0 C 89 % 1014,8 hPa 0,0 l/m 0 min 0 min 0 W/m 6,4 km/h (2 Bft) 97,83 %
15.05.2023 01:08 14,8 C 13,3 C 10,0 C 89 % 1014,7 hPa 0,0 l/m 0 min 0 min 0 W/m 6,4 km/h (2 Bft) 97,87 %
15.05.2023 01:10 14,7 C 13,3 C 10,0 C 89 % 1014,7 hPa 0,0 l/m 0 min 0 min 0 W/m 9,7 km/h (2 Bft) 100,00 %
15.05.2023 01:12 14,7 C 13,3 C 10,0 C 89 % 1014,8 hPa 0,0 l/m 0 min 0 min 0 W/m 6,4 km/h (2 Bft) 100,00 %
15.05.2023 01:14 14,7 C 13,3 C 10,0 C 89 % 1014,7 hPa 0,0 l/m 0 min 0 min 0 W/m 6,4 km/h (2 Bft) 97,87 %
15.05.2023 01:16 14,6 C 13,3 C 10,0 C 89 % 1014,8 hPa 0,0 l/m 0 min 0 min 0 W/m 9,7 km/h (2 Bft) 95,74 %
15.05.2023 01:18 14,6 C 13,3 C 10,0 C 90 % 1014,8 hPa 0,0 l/m 0 min 0 min 0 W/m 9,7 km/h (2 Bft) 97,87 %
15.05.2023 01:20 14,6 C 13,3 C 10,0 C 90 % 1014,8 hPa 0,0 l/m 0 min 0 min 0 W/m 9,7 km/h (2 Bft) 95,65 %
15.05.2023 01:22 14,6 C 13,3 C 10,0 C 90 % 1014,8 hPa 0,0 l/m 0 min 0 min 0 W/m 3,2 km/h (1 Bft) 97,87 %
15.05.2023 01:24 14,5 C 13,3 C 10,0 C 90 % 1014,7 hPa 0,0 l/m 0 min 0 min 0 W/m 3,2 km/h (1 Bft) 97,87 %
15.05.2023 01:26 14,5 C 13,3 C 10,0 C 90 % 1014,7 hPa 0,0 l/m 0 min 0 min 0 W/m 3,2 km/h (1 Bft) 97,87 %
15.05.2023 01:28 14,4 C 12,8 C 10,0 C 90 % 1014,8 hPa 0,0 l/m 0 min 0 min 0 W/m 6,4 km/h (2 Bft) 97,87 %
15.05.2023 01:30 14,4 C 12,8 C 9,4 C 90 % 1014,7 hPa 0,0 l/m 0 min 0 min 0 W/m 6,4 km/h (2 Bft) 97,87 %
15.05.2023 01:32 14,4 C 12,8 C 9,4 C 90 % 1014,7 hPa 0,0 l/m 0 min 0 min 0 W/m 3,2 km/h (1 Bft) 97,83 %
15.05.2023 01:34 14,3 C 12,8 C 9,4 C 90 % 1014,8 hPa 0,0 l/m 0 min 0 min 0 W/m 3,2 km/h (1 Bft) 97,22 %
15.05.2023 01:36 14,3 C 12,8 C 9,4 C 90 % 1014,8 hPa 0,0 l/m 0 min 0 min 0 W/m 3,2 km/h (1 Bft) 96,88 %
15.05.2023 01:38 14,3 C 12,8 C 9,4 C 90 % 1014,8 hPa 0,0 l/m 0 min 0 min 0 W/m 6,4 km/h (2 Bft) 95,74 %
15.05.2023 01:40 14,3 C 12,8 C 9,4 C 90 % 1014,7 hPa 0,0 l/m 0 min 0 min 0 W/m 6,4 km/h (2 Bft) 94,29 %
15.05.2023 01:42 14,3 C 12,8 C 9,4 C 91 % 1014,8 hPa 0,0 l/m 0 min 0 min 0 W/m 6,4 km/h (2 Bft) 97,62 %
15.05.2023 01:44 14,3 C 12,8 C 9,4 C 91 % 1014,7 hPa 0,0 l/m 0 min 0 min 0 W/m 6,4 km/h (2 Bft) 97,87 %
15.05.2023 01:46 14,3 C 12,8 C 9,4 C 91 % 1014,6 hPa 0,0 l/m 0 min 0 min 0 W/m 6,4 km/h (2 Bft) 96,30 %
15.05.2023 01:48 14,3 C 12,8 C 9,4 C 91 % 1014,7 hPa 0,0 l/m 0 min 0 min 0 W/m 9,7 km/h (2 Bft) 98,00 %
15.05.2023 01:50 14,3 C 12,8 C 9,4 C 91 % 1014,7 hPa 0,0 l/m 0 min 0 min 0 W/m 3,2 km/h (1 Bft) 95,74 %
15.05.2023 01:52 14,2 C 12,8 C 9,4 C 91 % 1014,7 hPa 0,0 l/m 0 min 0 min 0 W/m 6,4 km/h (2 Bft) 93,62 %
15.05.2023 01:54 14,2 C 12,8 C 9,4 C 91 % 1014,6 hPa 0,0 l/m 0 min 0 min 0 W/m 6,4 km/h (2 Bft) 95,74 %
15.05.2023 01:56 14,1 C 12,8 C 9,4 C 91 % 1014,6 hPa 0,0 l/m 0 min 0 min 0 W/m 3,2 km/h (1 Bft) 95,74 %
15.05.2023 01:58 14,1 C 12,8 C 9,4 C 91 % 1014,6 hPa 0,0 l/m 0 min 0 min 0 W/m 9,7 km/h (2 Bft) 95,65 %
15.05.2023 02:00 14,1 C 12,8 C 9,4 C 91 % 1014,6 hPa 0,0 l/m 0 min 0 min 0 W/m 3,2 km/h (1 Bft) 95,74 %
15.05.2023 02:02 14,1 C 12,8 C 9,4 C 91 % 1014,6 hPa 0,0 l/m 0 min 0 min 0 W/m 3,2 km/h (1 Bft) 93,62 %
15.05.2023 02:04 14,0 C 12,8 C 9,4 C 91 % 1014,7 hPa 0,0 l/m 0 min 0 min 0 W/m 3,2 km/h (1 Bft) 93,62 %
15.05.2023 02:06 14,0 C 12,8 C 9,4 C 92 % 1014,6 hPa 0,0 l/m 0 min 0 min 0 W/m 3,2 km/h (1 Bft) 93,10 %
15.05.2023 02:08 13,9 C 12,8 C 9,4 C 92 % 1014,6 hPa 0,0 l/m 0 min 0 min 0 W/m 6,4 km/h (2 Bft) 94,44 %
15.05.2023 02:10 13,9 C 12,8 C 9,4 C 92 % 1014,6 hPa 0,0 l/m 0 min 0 min 0 W/m 9,7 km/h (2 Bft) 89,36 %
15.05.2023 02:12 13,9 C 12,8 C 9,4 C 92 % 1014,6 hPa 0,0 l/m 0 min 0 min 0 W/m 6,4 km/h (2 Bft) 95,65 %
15.05.2023 02:14 13,9 C 12,8 C 9,4 C 92 % 1014,6 hPa 0,0 l/m 0 min 0 min 0 W/m 6,4 km/h (2 Bft) 95,74 %
15.05.2023 02:16 13,8 C 12,2 C 9,4 C 92 % 1014,5 hPa 0,0 l/m 0 min 0 min 0 W/m 6,4 km/h (2 Bft) 95,74 %
15.05.2023 02:18 13,8 C 12,8 C 9,4 C 92 % 1014,5 hPa 0,0 l/m 0 min 0 min 0 W/m 6,4 km/h (2 Bft) 95,74 %
15.05.2023 02:20 13,8 C 12,8 C 9,4 C 92 % 1014,6 hPa 0,0 l/m 0 min 0 min 0 W/m 3,2 km/h (1 Bft) 93,62 %
15.05.2023 02:22 13,8 C 12,8 C 9,4 C 92 % 1014,6 hPa 0,0 l/m 0 min 0 min 0 W/m 6,4 km/h (2 Bft) 95,74 %
15.05.2023 02:24 13,7 C 12,2 C 8,9 C 92 % 1014,5 hPa 0,0 l/m 0 min 0 min 0 W/m 3,2 km/h (1 Bft) 97,83 %
15.05.2023 02:26 13,7 C 12,2 C 8,9 C 92 % 1014,5 hPa 0,0 l/m 0 min 0 min 0 W/m 3,2 km/h (1 Bft) 95,74 %
15.05.2023 02:28 13,7 C 12,2 C 9,4 C 92 % 1014,5 hPa 0,0 l/m 0 min 0 min 0 W/m 3,2 km/h (1 Bft) 95,74 %
15.05.2023 02:30 13,7 C 12,2 C 8,9 C 92 % 1014,4 hPa 0,0 l/m 0 min 0 min 0 W/m 6,4 km/h (2 Bft) 97,87 %
15.05.2023 02:32 13,6 C 12,2 C 8,9 C 92 % 1014,5 hPa 0,0 l/m 0 min 0 min 0 W/m 6,4 km/h (2 Bft) 97,87 %
15.05.2023 02:34 13,6 C 12,2 C 8,9 C 93 % 1014,3 hPa 0,0 l/m 0 min 0 min 0 W/m 6,4 km/h (2 Bft) 97,87 %
15.05.2023 02:36 13,6 C 12,2 C 8,9 C 93 % 1014,3 hPa 0,0 l/m 0 min 0 min 0 W/m 6,4 km/h (2 Bft) 95,65 %
15.05.2023 02:38 13,6 C 12,2 C 8,9 C 93 % 1014,4 hPa 0,0 l/m 0 min 0 min 0 W/m 3,2 km/h (1 Bft) 97,87 %
15.05.2023 02:40 13,5 C 12,2 C 8,9 C 93 % 1014,4 hPa 0,0 l/m 0 min 0 min 0 W/m 6,4 km/h (2 Bft) 97,87 %
15.05.2023 02:42 13,5 C 12,2 C 8,9 C 93 % 1014,4 hPa 0,0 l/m 0 min 0 min 0 W/m 12,9 km/h (3 Bft) 93,62 %
15.05.2023 02:44 13,4 C 12,2 C 8,9 C 93 % 1014,3 hPa 0,0 l/m 0 min 0 min 0 W/m 3,2 km/h (1 Bft) 100,00 %
15.05.2023 02:46 13,4 C 12,2 C 8,9 C 93 % 1014,3 hPa 0,0 l/m 0 min 0 min 0 W/m 0,0 km/h (0 Bft) 97,92 %
15.05.2023 02:48 13,4 C 12,2 C 8,9 C 93 % 1014,3 hPa 0,0 l/m 0 min 0 min 0 W/m 3,2 km/h (1 Bft) 100,00 %
15.05.2023 02:50 13,4 C 12,2 C 8,9 C 93 % 1014,3 hPa 0,0 l/m 0 min 0 min 0 W/m 0,0 km/h (0 Bft) 100,00 %
15.05.2023 02:52 13,3 C 12,2 C 8,9 C 93 % 1014,2 hPa 0,0 l/m 0 min 0 min 0 W/m 0,0 km/h (0 Bft) 100,00 %
15.05.2023 02:54 13,3 C 12,2 C 8,9 C 93 % 1014,2 hPa 0,0 l/m 0 min 0 min 0 W/m 0,0 km/h (0 Bft) 100,00 %
15.05.2023 02:56 13,3 C 12,2 C 8,9 C 93 % 1014,2 hPa 0,0 l/m 0 min 0 min 0 W/m 0,0 km/h (0 Bft) 100,00 %
15.05.2023 02:58 13,3 C 11,7 C 8,9 C 93 % 1014,2 hPa 0,0 l/m 0 min 0 min 0 W/m 0,0 km/h (0 Bft) 97,87 %
15.05.2023 03:00 13,2 C 11,7 C 8,9 C 93 % 1014,2 hPa 0,0 l/m 0 min 0 min 0 W/m 0,0 km/h (0 Bft) 100,00 %
15.05.2023 03:02 13,2 C 11,7 C 8,9 C 93 % 1014,2 hPa 0,0 l/m 0 min 0 min 0 W/m 0,0 km/h (0 Bft) 100,00 %
15.05.2023 03:04 13,2 C 11,7 C 8,9 C 93 % 1014,2 hPa 0,0 l/m 0 min 0 min 0 W/m 0,0 km/h (0 Bft) 100,00 %
15.05.2023 03:06 13,2 C 11,7 C 8,3 C 93 % 1014,2 hPa 0,0 l/m 0 min 0 min 0 W/m 0,0 km/h (0 Bft) 100,00 %
15.05.2023 03:08 13,1 C 11,7 C 8,3 C 93 % 1014,2 hPa 0,0 l/m 0 min 0 min 0 W/m 0,0 km/h (0 Bft) 100,00 %
15.05.2023 03:10 13,1 C 11,7 C 8,3 C 93 % 1014,2 hPa 0,0 l/m 0 min 0 min 0 W/m 3,2 km/h (1 Bft) 100,00 %
15.05.2023 03:12 13,1 C 11,7 C 8,3 C 93 % 1014,1 hPa 0,0 l/m 0 min 0 min 0 W/m 3,2 km/h (1 Bft) 100,00 %
15.05.2023 03:14 13,1 C 11,7 C 8,3 C 93 % 1014,1 hPa 0,0 l/m 0 min 0 min 0 W/m 3,2 km/h (1 Bft) 100,00 %
15.05.2023 03:16 13,0 C 11,7 C 8,3 C 93 % 1014,1 hPa 0,0 l/m 0 min 0 min 0 W/m 3,2 km/h (1 Bft) 100,00 %
15.05.2023 03:18 13,0 C 11,7 C 8,3 C 93 % 1014,1 hPa 0,0 l/m 0 min 0 min 0 W/m 0,0 km/h (0 Bft) 100,00 %
15.05.2023 03:20 12,9 C 11,7 C 8,3 C 93 % 1014,1 hPa 0,0 l/m 0 min 0 min 0 W/m 0,0 km/h (0 Bft) 100,00 %
15.05.2023 03:22 12,9 C 11,7 C 8,3 C 93 % 1014,0 hPa 0,0 l/m 0 min 0 min 0 W/m 3,2 km/h (1 Bft) 97,87 %
15.05.2023 03:24 12,9 C 11,7 C 8,3 C 93 % 1014,0 hPa 0,0 l/m 0 min 0 min 0 W/m 3,2 km/h (1 Bft) 97,87 %
15.05.2023 03:26 12,8 C 11,7 C 8,3 C 93 % 1014,0 hPa 0,0 l/m 0 min 0 min 0 W/m 3,2 km/h (1 Bft) 96,15 %
15.05.2023 03:28 12,8 C 11,7 C 8,3 C 93 % 1014,0 hPa 0,0 l/m 0 min 0 min 0 W/m 0,0 km/h (0 Bft) 97,87 %
15.05.2023 03:30 12,8 C 11,7 C 8,3 C 93 % 1014,1 hPa 0,0 l/m 0 min 0 min 0 W/m 3,2 km/h (1 Bft) 51,28 %
15.05.2023 03:32 12,7 C 11,7 C 8,3 C 93 % 1014,0 hPa 0,0 l/m 0 min 0 min 0 W/m 3,2 km/h (1 Bft) 100,00 %
15.05.2023 03:34 12,7 C 11,7 C 8,3 C 93 % 1014,1 hPa 0,0 l/m 0 min 0 min 0 W/m 6,4 km/h (2 Bft) 100,00 %
15.05.2023 03:36 12,7 C 11,7 C 8,3 C 93 % 1014,2 hPa 0,0 l/m 0 min 0 min 0 W/m 6,4 km/h (2 Bft) 100,00 %
15.05.2023 03:38 12,6 C 11,7 C 8,3 C 93 % 1014,2 hPa 0,0 l/m 0 min 0 min 0 W/m 3,2 km/h (1 Bft) 98,00 %
15.05.2023 03:40 12,6 C 11,1 C 8,3 C 93 % 1014,2 hPa 0,0 l/m 0 min 0 min 0 W/m 3,2 km/h (1 Bft) 97,87 %
15.05.2023 03:42 12,6 C 11,1 C 8,3 C 93 % 1014,2 hPa 0,0 l/m 0 min 0 min 0 W/m 3,2 km/h (1 Bft) 97,83 %
15.05.2023 03:44 12,5 C 11,7 C 8,3 C 94 % 1014,2 hPa 0,0 l/m 0 min 0 min 0 W/m 3,2 km/h (1 Bft) 97,87 %
15.05.2023 03:46 12,4 C 11,1 C 8,3 C 94 % 1014,2 hPa 0,0 l/m 0 min 0 min 0 W/m 3,2 km/h (1 Bft) 97,92 %
15.05.2023 03:48 12,4 C 11,1 C 8,3 C 93 % 1014,2 hPa 0,0 l/m 0 min 0 min 0 W/m 0,0 km/h (0 Bft) 97,83 %
15.05.2023 03:50 12,4 C 11,1 C 8,3 C 93 % 1014,3 hPa 0,0 l/m 0 min 0 min 0 W/m 3,2 km/h (1 Bft) 97,87 %
15.05.2023 03:52 12,4 C 11,1 C 8,3 C 94 % 1014,4 hPa 0,0 l/m 0 min 0 min 0 W/m 3,2 km/h (1 Bft) 95,74 %
15.05.2023 03:54 12,3 C 11,1 C 8,3 C 94 % 1014,3 hPa 0,0 l/m 0 min 0 min 0 W/m 3,2 km/h (1 Bft) 97,83 %
15.05.2023 03:56 12,3 C 11,1 C 8,3 C 94 % 1014,4 hPa 0,0 l/m 0 min 0 min 0 W/m 3,2 km/h (1 Bft) 97,87 %
15.05.2023 03:58 12,3 C 11,1 C 8,3 C 94 % 1014,3 hPa 0,0 l/m 0 min 0 min 0 W/m 6,4 km/h (2 Bft) 97,96 %
15.05.2023 04:00 12,3 C 11,1 C 8,3 C 94 % 1014,3 hPa 0,0 l/m 0 min 0 min 0 W/m 6,4 km/h (2 Bft) 97,87 %
15.05.2023 04:02 12,2 C 11,1 C 8,3 C 94 % 1014,3 hPa 0,0 l/m 0 min 0 min 0 W/m 3,2 km/h (1 Bft) 100,00 %
15.05.2023 04:04 12,2 C 11,1 C 8,3 C 94 % 1014,3 hPa 0,0 l/m 0 min 0 min 0 W/m 9,7 km/h (2 Bft) 100,00 %
15.05.2023 04:06 12,2 C 11,1 C 8,3 C 94 % 1014,3 hPa 0,0 l/m 0 min 0 min 0 W/m 3,2 km/h (1 Bft) 100,00 %
15.05.2023 04:08 12,2 C 11,1 C 8,3 C 94 % 1014,3 hPa 0,0 l/m 0 min 0 min 0 W/m 3,2 km/h (1 Bft) 97,83 %
15.05.2023 04:10 12,1 C 11,1 C 8,3 C 94 % 1014,4 hPa 0,0 l/m 0 min 0 min 0 W/m 3,2 km/h (1 Bft) 100,00 %
15.05.2023 04:12 12,1 C 11,1 C 7,8 C 94 % 1014,3 hPa 0,0 l/m 0 min 0 min 0 W/m 6,4 km/h (2 Bft) 100,00 %
15.05.2023 04:14 12,1 C 11,1 C 8,3 C 94 % 1014,4 hPa 0,0 l/m 0 min 0 min 0 W/m 3,2 km/h (1 Bft) 100,00 %
15.05.2023 04:16 12,1 C 11,1 C 7,8 C 94 % 1014,4 hPa 0,0 l/m 0 min 0 min 0 W/m 3,2 km/h (1 Bft) 100,00 %
15.05.2023 04:18 12,1 C 11,1 C 7,8 C 94 % 1014,4 hPa 0,0 l/m 0 min 0 min 0 W/m 3,2 km/h (1 Bft) 100,00 %
15.05.2023 04:20 12,1 C 11,1 C 7,8 C 94 % 1014,4 hPa 0,0 l/m 0 min 0 min 0 W/m 3,2 km/h (1 Bft) 97,92 %
15.05.2023 04:22 12,0 C 11,1 C 7,8 C 94 % 1014,4 hPa 0,0 l/m 0 min 0 min 0 W/m 3,2 km/h (1 Bft) 100,00 %
15.05.2023 04:24 12,0 C 11,1 C 7,8 C 94 % 1014,4 hPa 0,0 l/m 0 min 0 min 0 W/m 6,4 km/h (2 Bft) 100,00 %
15.05.2023 04:26 12,0 C 11,1 C 7,8 C 94 % 1014,4 hPa 0,0 l/m 0 min 0 min 0 W/m 6,4 km/h (2 Bft) 100,00 %
15.05.2023 04:28 12,0 C 11,1 C 8,3 C 94 % 1014,3 hPa 0,0 l/m 0 min 0 min 0 W/m 3,2 km/h (1 Bft) 95,74 %
15.05.2023 04:30 11,9 C 11,1 C 8,3 C 94 % 1014,3 hPa 0,0 l/m 0 min 0 min 0 W/m 0,0 km/h (0 Bft) 100,00 %
15.05.2023 04:32 11,9 C 11,1 C 8,3 C 94 % 1014,4 hPa 0,0 l/m 0 min 0 min 0 W/m 3,2 km/h (1 Bft) 93,62 %
15.05.2023 04:34 11,9 C 11,1 C 8,3 C 94 % 1014,4 hPa 0,0 l/m 0 min 0 min 0 W/m 9,7 km/h (2 Bft) 95,65 %
15.05.2023 04:36 11,9 C 11,1 C 8,3 C 94 % 1014,4 hPa 0,0 l/m 0 min 0 min 0 W/m 6,4 km/h (2 Bft) 95,74 %
15.05.2023 04:38 11,9 C 11,1 C 8,3 C 94 % 1014,5 hPa 0,0 l/m 0 min 0 min 0 W/m 6,4 km/h (2 Bft) 95,74 %
15.05.2023 04:40 11,9 C 11,1 C 8,3 C 94 % 1014,6 hPa 0,0 l/m 0 min 0 min 0 W/m 6,4 km/h (2 Bft) 95,74 %
15.05.2023 04:42 11,9 C 11,1 C 8,3 C 95 % 1014,5 hPa 0,0 l/m 0 min 0 min 0 W/m 12,9 km/h (3 Bft) 95,74 %
15.05.2023 04:44 11,9 C 11,7 C 8,3 C 95 % 1014,5 hPa 0,0 l/m 0 min 0 min 0 W/m 6,4 km/h (2 Bft) 91,49 %
15.05.2023 04:46 11,9 C 11,1 C 8,3 C 95 % 1014,5 hPa 0,0 l/m 0 min 0 min 0 W/m 12,9 km/h (3 Bft) 93,48 %
15.05.2023 04:48 11,9 C 11,1 C 8,3 C 95 % 1014,4 hPa 0,0 l/m 0 min 0 min 0 W/m 6,4 km/h (2 Bft) 95,74 %
15.05.2023 04:50 11,9 C 11,7 C 8,3 C 95 % 1014,4 hPa 0,0 l/m 0 min 0 min 0 W/m 3,2 km/h (1 Bft) 95,74 %
15.05.2023 04:52 11,9 C 11,7 C 8,3 C 95 % 1014,4 hPa 0,0 l/m 0 min 0 min 0 W/m 6,4 km/h (2 Bft) 93,62 %
15.05.2023 04:54 12,0 C 11,7 C 8,3 C 95 % 1014,4 hPa 0,0 l/m 0 min 0 min 0 W/m 9,7 km/h (2 Bft) 93,62 %
15.05.2023 04:56 12,0 C 11,7 C 8,3 C 95 % 1014,5 hPa 0,0 l/m 0 min 0 min 0 W/m 9,7 km/h (2 Bft) 95,74 %
15.05.2023 04:58 12,0 C 11,1 C 8,3 C 95 % 1014,4 hPa 0,0 l/m 0 min 0 min 0 W/m 6,4 km/h (2 Bft) 95,74 %
15.05.2023 05:00 12,0 C 11,7 C 8,3 C 95 % 1014,4 hPa 0,0 l/m 0 min 0 min 0 W/m 6,4 km/h (2 Bft) 93,48 %
15.05.2023 05:02 11,9 C 11,7 C 8,3 C 95 % 1014,4 hPa 0,0 l/m 0 min 0 min 0 W/m 12,9 km/h (3 Bft) 93,62 %
15.05.2023 05:04 11,9 C 11,1 C 8,3 C 95 % 1014,4 hPa 0,0 l/m 0 min 0 min 0 W/m 3,2 km/h (1 Bft) 95,24 %
15.05.2023 05:06 11,9 C 11,1 C 8,3 C 95 % 1014,5 hPa 0,0 l/m 0 min 0 min 0 W/m 6,4 km/h (2 Bft) 95,74 %
15.05.2023 05:08 11,9 C 11,1 C 8,3 C 95 % 1014,5 hPa 0,0 l/m 0 min 0 min 0 W/m 9,7 km/h (2 Bft) 95,74 %
15.05.2023 05:10 11,9 C 11,1 C 8,3 C 95 % 1014,4 hPa 0,0 l/m 0 min 0 min 0 W/m 3,2 km/h (1 Bft) 97,87 %
15.05.2023 05:12 11,9 C 11,1 C 8,3 C 95 % 1014,4 hPa 0,0 l/m 0 min 0 min 0 W/m 3,2 km/h (1 Bft) 95,74 %
15.05.2023 05:14 11,9 C 11,7 C 8,3 C 95 % 1014,4 hPa 0,0 l/m 0 min 0 min 0 W/m 0,0 km/h (0 Bft) 93,48 %
15.05.2023 05:16 12,0 C 11,7 C 8,3 C 95 % 1014,4 hPa 0,0 l/m 0 min 0 min 0 W/m 0,0 km/h (0 Bft) 97,87 %
15.05.2023 05:18 12,0 C 11,1 C 8,3 C 95 % 1014,4 hPa 0,0 l/m 0 min 0 min 0 W/m 3,2 km/h (1 Bft) 97,87 %
15.05.2023 05:20 12,0 C 11,7 C 8,3 C 95 % 1014,4 hPa 0,0 l/m 0 min 0 min 0 W/m 3,2 km/h (1 Bft) 93,62 %
15.05.2023 05:22 12,0 C 11,1 C 8,3 C 95 % 1014,4 hPa 0,0 l/m 0 min 0 min 0 W/m 3,2 km/h (1 Bft) 95,74 %
15.05.2023 05:24 12,0 C 11,7 C 8,3 C 95 % 1014,4 hPa 0,0 l/m 0 min 0 min 0 W/m 6,4 km/h (2 Bft) 97,87 %
15.05.2023 05:26 12,0 C 11,1 C 8,3 C 95 % 1014,4 hPa 0,0 l/m 0 min 0 min 0 W/m 9,7 km/h (2 Bft) 95,74 %
15.05.2023 05:28 11,9 C 11,1 C 8,3 C 95 % 1014,4 hPa 0,0 l/m 0 min 0 min 0 W/m 6,4 km/h (2 Bft) 91,49 %
15.05.2023 05:30 11,9 C 11,1 C 8,3 C 95 % 1014,4 hPa 0,0 l/m 0 min 0 min 0 W/m 3,2 km/h (1 Bft) 95,65 %
15.05.2023 05:32 12,0 C 11,7 C 8,3 C 95 % 1014,4 hPa 0,0 l/m 0 min 0 min 0 W/m 6,4 km/h (2 Bft) 97,87 %
15.05.2023 05:34 11,9 C 11,1 C 8,3 C 95 % 1014,4 hPa 0,0 l/m 0 min 0 min 0 W/m 3,2 km/h (1 Bft) 97,87 %
15.05.2023 05:36 11,9 C 11,1 C 8,3 C 95 % 1014,4 hPa 0,0 l/m 0 min 0 min 0 W/m 3,2 km/h (1 Bft) 95,74 %
15.05.2023 05:38 11,9 C 11,1 C 8,3 C 95 % 1014,4 hPa 0,0 l/m 0 min 0 min 0 W/m 6,4 km/h (2 Bft) 95,74 %
15.05.2023 05:40 11,9 C 11,1 C 8,3 C 95 % 1014,4 hPa 0,0 l/m 0 min 0 min 0 W/m 3,2 km/h (1 Bft) 95,74 %
15.05.2023 05:42 11,9 C 11,1 C 8,3 C 95 % 1014,3 hPa 0,0 l/m 0 min 0 min 0 W/m 3,2 km/h (1 Bft) 97,83 %
15.05.2023 05:44 11,9 C 11,1 C 8,3 C 95 % 1014,3 hPa 0,0 l/m 0 min 0 min 0 W/m 3,2 km/h (1 Bft) 97,87 %
15.05.2023 05:46 11,9 C 11,1 C 8,3 C 95 % 1014,3 hPa 0,0 l/m 0 min 0 min 0 W/m 3,2 km/h (1 Bft) 93,62 %
15.05.2023 05:48 11,9 C 11,1 C 8,3 C 95 % 1014,3 hPa 0,0 l/m 0 min 0 min 0 W/m 3,2 km/h (1 Bft) 95,74 %
15.05.2023 05:50 11,9 C 11,1 C 8,3 C 95 % 1014,3 hPa 0,0 l/m 0 min 0 min 2 W/m 3,2 km/h (1 Bft) 100,00 %
15.05.2023 05:52 11,9 C 11,1 C 8,3 C 95 % 1014,3 hPa 0,0 l/m 0 min 0 min 5 W/m 3,2 km/h (1 Bft) 97,87 %
15.05.2023 05:54 11,9 C 11,1 C 8,3 C 95 % 1014,2 hPa 0,0 l/m 0 min 0 min 5 W/m 3,2 km/h (1 Bft) 95,74 %
15.05.2023 05:56 11,9 C 11,1 C 7,8 C 95 % 1014,3 hPa 0,0 l/m 0 min 0 min 6 W/m 3,2 km/h (1 Bft) 100,00 %
15.05.2023 05:58 11,8 C 11,1 C 7,8 C 95 % 1014,3 hPa 0,0 l/m 0 min 0 min 7 W/m 9,7 km/h (2 Bft) 97,87 %
15.05.2023 06:00 11,8 C 11,1 C 7,8 C 94 % 1014,3 hPa 0,0 l/m 0 min 0 min 7 W/m 6,4 km/h (2 Bft) 97,87 %
15.05.2023 06:02 11,8 C 11,1 C 7,8 C 94 % 1014,3 hPa 0,0 l/m 0 min 0 min 7 W/m 0,0 km/h (0 Bft) 100,00 %
15.05.2023 06:04 11,8 C 11,1 C 7,8 C 94 % 1014,2 hPa 0,0 l/m 0 min 0 min 9 W/m 0,0 km/h (0 Bft) 100,00 %
15.05.2023 06:07 11,8 C 11,1 C 7,8 C 94 % 1014,3 hPa 0,0 l/m 0 min 0 min 11 W/m 6,4 km/h (2 Bft) 100,00 %
15.05.2023 06:08 11,8 C 11,1 C 7,8 C 94 % 1014,3 hPa 0,0 l/m 0 min 0 min 11 W/m 6,4 km/h (2 Bft) 100,00 %
15.05.2023 06:12 11,8 C 11,1 C 7,8 C 94 % 1014,2 hPa 0,0 l/m 0 min 0 min 13 W/m 0,0 km/h (0 Bft) 100,00 %
15.05.2023 06:16 11,7 C 10,6 C 7,8 C 94 % 1014,3 hPa 0,0 l/m 0 min 0 min 15 W/m 6,4 km/h (2 Bft) 98,94 %
15.05.2023 06:18 11,7 C 10,6 C 7,8 C 94 % 1014,3 hPa 0,0 l/m 0 min 0 min 18 W/m 3,2 km/h (1 Bft) 100,00 %
15.05.2023 06:20 11,7 C 10,6 C 7,8 C 94 % 1014,3 hPa 0,0 l/m 0 min 0 min 19 W/m 3,2 km/h (1 Bft) 97,87 %
15.05.2023 06:22 11,7 C 10,6 C 7,8 C 94 % 1014,3 hPa 0,0 l/m 0 min 0 min 20 W/m 0,0 km/h (0 Bft) 100,00 %
15.05.2023 06:24 11,7 C 10,6 C 7,8 C 94 % 1014,3 hPa 0,0 l/m 0 min 0 min 22 W/m 0,0 km/h (0 Bft) 97,87 %
15.05.2023 06:26 11,6 C 10,6 C 7,8 C 94 % 1014,3 hPa 0,0 l/m 0 min 0 min 24 W/m 3,2 km/h (1 Bft) 100,00 %
15.05.2023 06:28 11,6 C 10,6 C 7,8 C 94 % 1014,3 hPa 0,0 l/m 0 min 0 min 25 W/m 0,0 km/h (0 Bft) 100,00 %
15.05.2023 06:30 11,6 C 10,6 C 7,8 C 94 % 1014,3 hPa 0,0 l/m 0 min 0 min 26 W/m 3,2 km/h (1 Bft) 100,00 %
15.05.2023 06:32 11,6 C 10,6 C 7,8 C 94 % 1014,4 hPa 0,0 l/m 0 min 0 min 28 W/m 3,2 km/h (1 Bft) 100,00 %
15.05.2023 06:34 11,6 C 10,6 C 7,8 C 94 % 1014,4 hPa 0,0 l/m 0 min 0 min 30 W/m 0,0 km/h (0 Bft) 100,00 %
15.05.2023 06:36 11,6 C 10,6 C 7,8 C 94 % 1014,4 hPa 0,0 l/m 0 min 0 min 30 W/m 3,2 km/h (1 Bft) 100,00 %
15.05.2023 06:38 11,5 C 10,6 C 7,8 C 94 % 1014,4 hPa 0,0 l/m 0 min 0 min 32 W/m 3,2 km/h (1 Bft) 100,00 %
15.05.2023 06:40 11,5 C 10,6 C 7,8 C 94 % 1014,4 hPa 0,0 l/m 0 min 0 min 33 W/m 6,4 km/h (2 Bft) 100,00 %
15.05.2023 06:42 11,4 C 10,6 C 7,8 C 94 % 1014,3 hPa 0,0 l/m 0 min 0 min 34 W/m 6,4 km/h (2 Bft) 100,00 %
15.05.2023 06:44 11,4 C 10,6 C 7,8 C 94 % 1014,4 hPa 0,0 l/m 0 min 0 min 35 W/m 3,2 km/h (1 Bft) 100,00 %
15.05.2023 06:46 11,4 C 10,6 C 7,8 C 94 % 1014,4 hPa 0,0 l/m 0 min 0 min 37 W/m 3,2 km/h (1 Bft) 100,00 %
15.05.2023 06:48 11,4 C 10,6 C 7,8 C 94 % 1014,4 hPa 0,0 l/m 0 min 0 min 39 W/m 3,2 km/h (1 Bft) 100,00 %
15.05.2023 06:50 11,4 C 10,6 C 7,8 C 94 % 1014,4 hPa 0,0 l/m 0 min 0 min 41 W/m 6,4 km/h (2 Bft) 100,00 %
15.05.2023 06:52 11,4 C 10,6 C 7,8 C 94 % 1014,4 hPa 0,0 l/m 0 min 0 min 42 W/m 6,4 km/h (2 Bft) 97,87 %
15.05.2023 06:54 11,4 C 10,6 C 7,8 C 94 % 1014,4 hPa 0,0 l/m 0 min 0 min 44 W/m 9,7 km/h (2 Bft) 100,00 %
15.05.2023 06:56 11,4 C 10,6 C 7,8 C 94 % 1014,5 hPa 0,0 l/m 0 min 0 min 50 W/m 6,4 km/h (2 Bft) 93,62 %
15.05.2023 06:58 11,4 C 10,6 C 7,8 C 94 % 1014,5 hPa 0,0 l/m 0 min 0 min 52 W/m 6,4 km/h (2 Bft) 100,00 %
15.05.2023 07:00 11,4 C 11,1 C 7,8 C 94 % 1014,4 hPa 0,0 l/m 0 min 0 min 60 W/m 6,4 km/h (2 Bft) 100,00 %
15.05.2023 07:02 11,4 C 11,1 C 7,8 C 94 % 1014,4 hPa 0,0 l/m 0 min 0 min 55 W/m 6,4 km/h (2 Bft) 100,00 %
15.05.2023 07:04 11,4 C 11,1 C 7,8 C 94 % 1014,5 hPa 0,0 l/m 0 min 0 min 56 W/m 6,4 km/h (2 Bft) 100,00 %
15.05.2023 07:06 11,4 C 11,1 C 7,8 C 94 % 1014,5 hPa 0,0 l/m 0 min 0 min 53 W/m 6,4 km/h (2 Bft) 95,74 %
15.05.2023 07:08 11,4 C 11,1 C 7,8 C 95 % 1014,4 hPa 0,0 l/m 0 min 0 min 50 W/m 6,4 km/h (2 Bft) 95,74 %
15.05.2023 07:10 11,5 C 11,1 C 7,8 C 95 % 1014,4 hPa 0,0 l/m 0 min 0 min 51 W/m 3,2 km/h (1 Bft) 93,62 %
15.05.2023 07:12 11,5 C 11,1 C 7,8 C 95 % 1014,5 hPa 0,0 l/m 0 min 0 min 48 W/m 9,7 km/h (2 Bft) 93,62 %
15.05.2023 07:14 11,5 C 11,1 C 8,3 C 95 % 1014,4 hPa 0,0 l/m 0 min 0 min 61 W/m 6,4 km/h (2 Bft) 95,74 %
15.05.2023 07:16 11,6 C 11,1 C 8,3 C 95 % 1014,5 hPa 0,0 l/m 0 min 0 min 60 W/m 9,7 km/h (2 Bft) 93,62 %
15.05.2023 07:18 11,6 C 11,1 C 8,3 C 95 % 1014,5 hPa 0,0 l/m 0 min 0 min 62 W/m 16,1 km/h (3 Bft) 95,74 %
15.05.2023 07:20 11,6 C 11,7 C 8,3 C 95 % 1014,5 hPa 0,0 l/m 0 min 0 min 72 W/m 12,9 km/h (3 Bft) 95,65 %
15.05.2023 07:22 11,6 C 11,1 C 8,3 C 95 % 1014,5 hPa 0,0 l/m 0 min 0 min 70 W/m 9,7 km/h (2 Bft) 93,62 %
15.05.2023 07:24 11,6 C 11,1 C 8,3 C 95 % 1014,5 hPa 0,0 l/m 0 min 0 min 74 W/m 12,9 km/h (3 Bft) 95,74 %
15.05.2023 07:26 11,6 C 11,7 C 8,3 C 95 % 1014,5 hPa 0,0 l/m 0 min 0 min 86 W/m 9,7 km/h (2 Bft) 95,74 %
15.05.2023 07:28 11,6 C 11,7 C 8,3 C 95 % 1014,4 hPa 0,0 l/m 0 min 0 min 85 W/m 9,7 km/h (2 Bft) 91,49 %
15.05.2023 07:30 11,6 C 11,7 C 8,3 C 95 % 1014,4 hPa 0,0 l/m 0 min 0 min 84 W/m 9,7 km/h (2 Bft) 93,62 %
15.05.2023 07:32 11,6 C 11,7 C 8,3 C 95 % 1014,4 hPa 0,0 l/m 0 min 0 min 90 W/m 9,7 km/h (2 Bft) 93,48 %
15.05.2023 07:34 11,6 C 11,7 C 8,3 C 95 % 1014,4 hPa 0,0 l/m 0 min 0 min 82 W/m 12,9 km/h (3 Bft) 93,62 %
15.05.2023 07:36 11,6 C 11,7 C 8,3 C 95 % 1014,4 hPa 0,0 l/m 0 min 0 min 85 W/m 9,7 km/h (2 Bft) 95,74 %
15.05.2023 07:38 11,6 C 11,7 C 8,3 C 95 % 1014,5 hPa 0,0 l/m 0 min 0 min 89 W/m 9,7 km/h (2 Bft) 93,62 %
15.05.2023 07:40 11,6 C 11,7 C 8,3 C 95 % 1014,5 hPa 0,0 l/m 0 min 0 min 79 W/m 9,7 km/h (2 Bft) 95,74 %
15.05.2023 07:42 11,6 C 11,7 C 8,3 C 95 % 1014,5 hPa 0,0 l/m 0 min 0 min 78 W/m 6,4 km/h (2 Bft) 95,74 %
15.05.2023 07:44 11,6 C 11,7 C 8,3 C 94 % 1014,6 hPa 0,0 l/m 0 min 0 min 87 W/m 9,7 km/h (2 Bft) 97,87 %
15.05.2023 07:46 11,6 C 11,7 C 8,3 C 94 % 1014,6 hPa 0,0 l/m 0 min 0 min 98 W/m 16,1 km/h (3 Bft) 93,48 %
15.05.2023 07:48 11,6 C 11,7 C 8,3 C 94 % 1014,6 hPa 0,0 l/m 0 min 0 min 100 W/m 12,9 km/h (3 Bft) 95,74 %
15.05.2023 07:50 11,6 C 11,7 C 8,3 C 94 % 1014,6 hPa 0,0 l/m 0 min 0 min 123 W/m 6,4 km/h (2 Bft) 95,74 %
15.05.2023 07:52 11,6 C 11,7 C 8,3 C 94 % 1014,5 hPa 0,0 l/m 0 min 0 min 116 W/m 3,2 km/h (1 Bft) 93,62 %
15.05.2023 07:54 11,6 C 11,7 C 8,3 C 94 % 1014,5 hPa 0,0 l/m 0 min 0 min 111 W/m 6,4 km/h (2 Bft) 95,74 %
15.05.2023 07:56 11,7 C 12,2 C 8,3 C 94 % 1014,5 hPa 0,0 l/m 0 min 0 min 132 W/m 12,9 km/h (3 Bft) 95,74 %
15.05.2023 07:58 11,7 C 12,2 C 8,3 C 94 % 1014,6 hPa 0,0 l/m 0 min 0 min 130 W/m 9,7 km/h (2 Bft) 95,65 %
15.05.2023 08:00 11,7 C 12,2 C 8,3 C 94 % 1014,5 hPa 0,0 l/m 0 min 0 min 133 W/m 9,7 km/h (2 Bft) 97,87 %
15.05.2023 08:02 11,7 C 12,2 C 8,3 C 94 % 1014,5 hPa 0,0 l/m 0 min 0 min 152 W/m 9,7 km/h (2 Bft) 97,87 %
15.05.2023 08:04 11,7 C 12,2 C 8,9 C 93 % 1014,5 hPa 0,0 l/m 0 min 0 min 153 W/m 0,0 km/h (0 Bft) 95,74 %
15.05.2023 08:06 11,7 C 12,2 C 8,9 C 94 % 1014,6 hPa 0,0 l/m 0 min 0 min 125 W/m 9,7 km/h (2 Bft) 97,87 %
15.05.2023 08:08 11,8 C 12,2 C 8,9 C 94 % 1014,6 hPa 0,0 l/m 0 min 0 min 139 W/m 16,1 km/h (3 Bft) 97,87 %
15.05.2023 08:10 11,8 C 12,2 C 8,9 C 93 % 1014,5 hPa 0,0 l/m 0 min 0 min 151 W/m 9,7 km/h (2 Bft) 95,74 %
15.05.2023 08:12 11,8 C 12,2 C 8,9 C 93 % 1014,6 hPa 0,0 l/m 0 min 0 min 151 W/m 9,7 km/h (2 Bft) 95,65 %
15.05.2023 08:14 11,9 C 12,2 C 8,9 C 93 % 1014,6 hPa 0,0 l/m 0 min 0 min 131 W/m 9,7 km/h (2 Bft) 97,87 %
15.05.2023 08:16 11,9 C 12,8 C 8,9 C 93 % 1014,6 hPa 0,0 l/m 0 min 0 min 155 W/m 9,7 km/h (2 Bft) 95,74 %
15.05.2023 08:18 12,0 C 13,9 C 8,9 C 93 % 1014,6 hPa 0,0 l/m 2 min 0 min 216 W/m 6,4 km/h (2 Bft) 97,87 %
15.05.2023 08:20 12,0 C 13,9 C 8,9 C 93 % 1014,6 hPa 0,0 l/m 2 min 0 min 293 W/m 12,9 km/h (3 Bft) 97,87 %
15.05.2023 08:22 12,1 C 13,9 C 8,9 C 93 % 1014,7 hPa 0,0 l/m 2 min 0 min 335 W/m 12,9 km/h (3 Bft) 95,74 %
15.05.2023 08:24 12,1 C 13,9 C 8,9 C 93 % 1014,7 hPa 0,0 l/m 2 min 0 min 193 W/m 6,4 km/h (2 Bft) 97,83 %
15.05.2023 08:26 12,2 C 13,9 C 8,9 C 93 % 1014,7 hPa 0,0 l/m 0 min 0 min 178 W/m 12,9 km/h (3 Bft) 97,87 %
15.05.2023 08:31 12,2 C 13,9 C 8,9 C 92 % 1014,8 hPa 0,0 l/m 5 min 0 min 239 W/m 12,9 km/h (3 Bft) 97,14 %
15.05.2023 08:32 12,2 C 13,9 C 8,9 C 92 % 1014,8 hPa 0,0 l/m 0 min 0 min 196 W/m 12,9 km/h (3 Bft) 100,00 %
15.05.2023 08:34 12,3 C 14,4 C 9,4 C 92 % 1014,8 hPa 0,0 l/m 0 min 0 min 192 W/m 9,7 km/h (2 Bft) 97,87 %
15.05.2023 08:36 12,4 C 14,4 C 9,4 C 92 % 1014,8 hPa 0,0 l/m 2 min 0 min 346 W/m 16,1 km/h (3 Bft) 97,83 %
15.05.2023 08:38 12,4 C 15,0 C 9,4 C 92 % 1014,9 hPa 0,0 l/m 2 min 0 min 210 W/m 9,7 km/h (2 Bft) 100,00 %
15.05.2023 08:40 12,4 C 14,4 C 8,9 C 91 % 1014,9 hPa 0,0 l/m 2 min 0 min 319 W/m 16,1 km/h (3 Bft) 100,00 %
15.05.2023 08:42 12,4 C 14,4 C 8,9 C 91 % 1014,9 hPa 0,0 l/m 2 min 0 min 276 W/m 12,9 km/h (3 Bft) 97,87 %
15.05.2023 08:44 12,4 C 14,4 C 9,4 C 90 % 1015,0 hPa 0,0 l/m 2 min 0 min 254 W/m 12,9 km/h (3 Bft) 100,00 %
15.05.2023 08:46 12,5 C 13,9 C 9,4 C 90 % 1014,9 hPa 0,0 l/m 2 min 0 min 243 W/m 12,9 km/h (3 Bft) 95,74 %
15.05.2023 08:48 12,5 C 13,9 C 9,4 C 90 % 1015,0 hPa 0,0 l/m 2 min 0 min 223 W/m 16,1 km/h (3 Bft) 100,00 %
15.05.2023 08:50 12,6 C 14,4 C 8,9 C 90 % 1014,9 hPa 0,0 l/m 2 min 0 min 233 W/m 19,3 km/h (3 Bft) 97,83 %
15.05.2023 08:52 12,6 C 15,0 C 9,4 C 89 % 1014,8 hPa 0,0 l/m 2 min 0 min 394 W/m 9,7 km/h (2 Bft) 100,00 %
15.05.2023 08:54 12,6 C 14,4 C 9,4 C 89 % 1014,9 hPa 0,0 l/m 0 min 0 min 214 W/m 16,1 km/h (3 Bft) 100,00 %
15.05.2023 08:56 12,6 C 14,4 C 9,4 C 89 % 1014,8 hPa 0,0 l/m 2 min 0 min 248 W/m 16,1 km/h (3 Bft) 100,00 %
15.05.2023 08:58 12,7 C 15,0 C 9,4 C 89 % 1014,8 hPa 0,0 l/m 2 min 0 min 264 W/m 9,7 km/h (2 Bft) 97,87 %
15.05.2023 09:00 12,7 C 15,0 C 10,0 C 89 % 1014,9 hPa 0,0 l/m 2 min 0 min 312 W/m 22,5 km/h (4 Bft) 100,00 %
15.05.2023 09:02 12,8 C 15,0 C 10,0 C 88 % 1014,8 hPa 0,0 l/m 2 min 0 min 268 W/m 9,7 km/h (2 Bft) 97,83 %
15.05.2023 09:04 12,8 C 14,4 C 10,0 C 88 % 1014,8 hPa 0,0 l/m 0 min 0 min 226 W/m 12,9 km/h (3 Bft) 97,87 %
15.05.2023 09:06 12,9 C 14,4 C 10,0 C 88 % 1014,8 hPa 0,0 l/m 0 min 0 min 199 W/m 12,9 km/h (3 Bft) 97,87 %
15.05.2023 09:08 12,9 C 15,0 C 10,0 C 88 % 1014,8 hPa 0,0 l/m 0 min 0 min 206 W/m 16,1 km/h (3 Bft) 97,87 %
15.05.2023 09:10 13,0 C 15,6 C 10,6 C 88 % 1014,9 hPa 0,0 l/m 2 min 0 min 406 W/m 16,1 km/h (3 Bft) 95,74 %
15.05.2023 09:12 13,1 C 15,6 C 10,6 C 87 % 1014,9 hPa 0,0 l/m 2 min 0 min 359 W/m 12,9 km/h (3 Bft) 97,87 %
15.05.2023 09:14 13,2 C 14,4 C 10,6 C 87 % 1014,9 hPa 0,0 l/m 0 min 0 min 209 W/m 9,7 km/h (2 Bft) 95,74 %
15.05.2023 09:16 13,2 C 14,4 C 10,0 C 87 % 1014,9 hPa 0,0 l/m 0 min 0 min 228 W/m 12,9 km/h (3 Bft) 97,83 %
15.05.2023 09:18 13,2 C 15,0 C 10,6 C 87 % 1014,9 hPa 0,0 l/m 2 min 0 min 256 W/m 16,1 km/h (3 Bft) 97,87 %
15.05.2023 09:20 13,2 C 15,6 C 10,6 C 87 % 1014,9 hPa 0,0 l/m 2 min 0 min 385 W/m 16,1 km/h (3 Bft) 97,87 %
15.05.2023 09:22 13,3 C 15,0 C 10,6 C 87 % 1014,9 hPa 0,0 l/m 2 min 0 min 435 W/m 9,7 km/h (2 Bft) 97,87 %
15.05.2023 09:24 13,3 C 15,0 C 10,6 C 87 % 1014,8 hPa 0,0 l/m 2 min 0 min 266 W/m 6,4 km/h (2 Bft) 97,87 %
15.05.2023 09:26 13,3 C 15,6 C 11,1 C 86 % 1014,8 hPa 0,0 l/m 0 min 0 min 240 W/m 12,9 km/h (3 Bft) 97,87 %
15.05.2023 09:28 13,4 C 16,1 C 11,1 C 87 % 1014,8 hPa 0,0 l/m 2 min 0 min 443 W/m 9,7 km/h (2 Bft) 97,83 %
15.05.2023 09:30 13,6 C 16,7 C 11,7 C 87 % 1014,7 hPa 0,0 l/m 2 min 0 min 496 W/m 12,9 km/h (3 Bft) 95,74 %
15.05.2023 09:32 13,7 C 17,8 C 11,7 C 86 % 1014,8 hPa 0,0 l/m 2 min 0 min 499 W/m 9,7 km/h (2 Bft) 97,87 %
15.05.2023 09:34 13,8 C 17,8 C 12,2 C 86 % 1014,7 hPa 0,0 l/m 2 min 0 min 476 W/m 12,9 km/h (3 Bft) 95,74 %
15.05.2023 09:36 13,9 C 17,8 C 12,2 C 86 % 1014,8 hPa 0,0 l/m 2 min 0 min 466 W/m 9,7 km/h (2 Bft) 97,87 %
15.05.2023 09:38 14,0 C 18,3 C 12,8 C 85 % 1014,7 hPa 0,0 l/m 2 min 0 min 484 W/m 12,9 km/h (3 Bft) 100,00 %
15.05.2023 09:40 14,1 C 17,8 C 12,8 C 84 % 1014,8 hPa 0,0 l/m 2 min 0 min 508 W/m 12,9 km/h (3 Bft) 97,87 %
15.05.2023 09:42 14,1 C 17,8 C 12,8 C 83 % 1014,8 hPa 0,0 l/m 2 min 0 min 479 W/m 16,1 km/h (3 Bft) 100,00 %
15.05.2023 09:44 14,3 C 18,3 C 12,8 C 83 % 1014,7 hPa 0,0 l/m 2 min 0 min 506 W/m 16,1 km/h (3 Bft) 97,87 %
15.05.2023 09:46 14,3 C 18,3 C 13,3 C 83 % 1014,8 hPa 0,0 l/m 2 min 0 min 504 W/m 12,9 km/h (3 Bft) 100,00 %
15.05.2023 09:48 14,3 C 18,3 C 13,3 C 82 % 1014,8 hPa 0,0 l/m 2 min 0 min 506 W/m 16,1 km/h (3 Bft) 100,00 %
15.05.2023 09:50 14,4 C 18,9 C 13,3 C 83 % 1014,7 hPa 0,0 l/m 2 min 0 min 536 W/m 9,7 km/h (2 Bft) 97,87 %
15.05.2023 09:52 14,6 C 18,9 C 13,3 C 83 % 1014,7 hPa 0,0 l/m 2 min 0 min 574 W/m 9,7 km/h (2 Bft) 100,00 %
15.05.2023 09:54 14,7 C 18,9 C 13,9 C 83 % 1014,7 hPa 0,0 l/m 2 min 0 min 586 W/m 16,1 km/h (3 Bft) 97,83 %
15.05.2023 09:56 14,7 C 18,3 C 13,9 C 81 % 1014,8 hPa 0,0 l/m 2 min 0 min 599 W/m 9,7 km/h (2 Bft) 100,00 %
15.05.2023 09:58 14,8 C 18,3 C 13,9 C 81 % 1014,7 hPa 0,0 l/m 2 min 0 min 583 W/m 19,3 km/h (3 Bft) 100,00 %
15.05.2023 10:00 14,8 C 17,8 C 13,3 C 81 % 1014,7 hPa 0,0 l/m 2 min 0 min 591 W/m 12,9 km/h (3 Bft) 100,00 %
15.05.2023 10:02 14,9 C 17,8 C 13,3 C 81 % 1014,7 hPa 0,0 l/m 2 min 0 min 568 W/m 12,9 km/h (3 Bft) 100,00 %
15.05.2023 10:04 14,9 C 17,8 C 13,3 C 81 % 1014,7 hPa 0,0 l/m 2 min 0 min 573 W/m 12,9 km/h (3 Bft) 100,00 %
15.05.2023 10:06 14,9 C 17,8 C 13,3 C 81 % 1014,6 hPa 0,0 l/m 2 min 0 min 576 W/m 12,9 km/h (3 Bft) 100,00 %
15.05.2023 10:08 14,9 C 17,2 C 12,8 C 81 % 1014,6 hPa 0,0 l/m 2 min 0 min 532 W/m 12,9 km/h (3 Bft) 100,00 %
15.05.2023 10:10 15,0 C 17,2 C 12,8 C 81 % 1014,7 hPa 0,0 l/m 2 min 0 min 470 W/m 12,9 km/h (3 Bft) 100,00 %
15.05.2023 10:12 15,0 C 17,2 C 12,2 C 80 % 1014,7 hPa 0,0 l/m 2 min 0 min 506 W/m 16,1 km/h (3 Bft) 97,87 %
15.05.2023 10:14 15,0 C 17,2 C 12,2 C 80 % 1014,6 hPa 0,0 l/m 2 min 0 min 593 W/m 16,1 km/h (3 Bft) 100,00 %
15.05.2023 10:16 15,0 C 17,2 C 12,2 C 80 % 1014,6 hPa 0,0 l/m 2 min 0 min 555 W/m 16,1 km/h (3 Bft) 100,00 %
15.05.2023 10:18 14,9 C 17,2 C 12,2 C 79 % 1014,6 hPa 0,0 l/m 2 min 0 min 591 W/m 16,1 km/h (3 Bft) 100,00 %
15.05.2023 10:20 15,0 C 17,2 C 12,8 C 80 % 1014,6 hPa 0,0 l/m 2 min 0 min 665 W/m 12,9 km/h (3 Bft) 100,00 %
15.05.2023 10:22 15,0 C 17,8 C 12,8 C 79 % 1014,6 hPa 0,0 l/m 2 min 0 min 652 W/m 9,7 km/h (2 Bft) 100,00 %
15.05.2023 10:24 15,1 C 16,7 C 12,8 C 79 % 1014,6 hPa 0,0 l/m 2 min 0 min 445 W/m 12,9 km/h (3 Bft) 97,87 %
15.05.2023 10:26 15,1 C 16,1 C 12,2 C 79 % 1014,6 hPa 0,0 l/m 2 min 0 min 338 W/m 9,7 km/h (2 Bft) 95,74 %
15.05.2023 10:28 15,0 C 15,6 C 12,2 C 79 % 1014,7 hPa 0,0 l/m 2 min 0 min 362 W/m 12,9 km/h (3 Bft) 97,83 %
15.05.2023 10:30 14,9 C 15,6 C 12,2 C 80 % 1014,6 hPa 0,0 l/m 2 min 0 min 472 W/m 9,7 km/h (2 Bft) 95,74 %
15.05.2023 10:32 15,0 C 15,6 C 11,7 C 80 % 1014,6 hPa 0,0 l/m 2 min 0 min 443 W/m 6,4 km/h (2 Bft) 95,74 %
15.05.2023 10:34 15,0 C 15,6 C 11,7 C 80 % 1014,6 hPa 0,0 l/m 2 min 0 min 421 W/m 9,7 km/h (2 Bft) 97,62 %
15.05.2023 10:36 15,0 C 15,6 C 11,7 C 80 % 1014,6 hPa 0,0 l/m 2 min 0 min 395 W/m 9,7 km/h (2 Bft) 98,08 %
15.05.2023 10:38 15,0 C 15,6 C 11,7 C 80 % 1014,5 hPa 0,0 l/m 2 min 0 min 423 W/m 12,9 km/h (3 Bft) 97,87 %
15.05.2023 10:40 15,1 C 16,1 C 11,7 C 80 % 1014,5 hPa 0,0 l/m 2 min 0 min 512 W/m 6,4 km/h (2 Bft) 97,83 %
15.05.2023 10:42 15,1 C 16,1 C 12,2 C 80 % 1014,5 hPa 0,0 l/m 2 min 0 min 536 W/m 19,3 km/h (3 Bft) 97,87 %
15.05.2023 10:44 15,1 C 16,1 C 12,2 C 79 % 1014,5 hPa 0,0 l/m 2 min 0 min 599 W/m 6,4 km/h (2 Bft) 97,87 %
15.05.2023 10:46 15,1 C 16,7 C 12,2 C 79 % 1014,5 hPa 0,0 l/m 2 min 0 min 626 W/m 9,7 km/h (2 Bft) 97,87 %
15.05.2023 10:48 15,2 C 16,1 C 12,8 C 79 % 1014,5 hPa 0,0 l/m 2 min 0 min 653 W/m 12,9 km/h (3 Bft) 97,87 %
15.05.2023 10:50 15,3 C 16,7 C 12,8 C 79 % 1014,5 hPa 0,0 l/m 2 min 0 min 686 W/m 12,9 km/h (3 Bft) 93,62 %
15.05.2023 10:52 15,4 C 16,7 C 12,8 C 79 % 1014,4 hPa 0,0 l/m 2 min 0 min 683 W/m 9,7 km/h (2 Bft) 95,74 %
15.05.2023 10:54 15,5 C 17,2 C 12,8 C 78 % 1014,5 hPa 0,0 l/m 2 min 0 min 683 W/m 12,9 km/h (3 Bft) 95,65 %
15.05.2023 10:56 15,6 C 17,8 C 13,3 C 78 % 1014,4 hPa 0,0 l/m 2 min 0 min 684 W/m 12,9 km/h (3 Bft) 95,74 %
15.05.2023 10:58 15,6 C 17,8 C 13,3 C 77 % 1014,5 hPa 0,0 l/m 2 min 0 min 614 W/m 12,9 km/h (3 Bft) 95,74 %
15.05.2023 11:00 15,6 C 17,8 C 12,8 C 76 % 1014,4 hPa 0,0 l/m 2 min 0 min 644 W/m 16,1 km/h (3 Bft) 97,87 %
15.05.2023 11:02 15,7 C 17,8 C 12,8 C 76 % 1014,5 hPa 0,0 l/m 2 min 0 min 627 W/m 9,7 km/h (2 Bft) 97,87 %
15.05.2023 11:04 15,8 C 18,3 C 12,8 C 76 % 1014,5 hPa 0,0 l/m 2 min 0 min 660 W/m 12,9 km/h (3 Bft) 97,87 %
15.05.2023 11:06 15,9 C 18,3 C 12,8 C 75 % 1014,5 hPa 0,0 l/m 2 min 0 min 688 W/m 9,7 km/h (2 Bft) 94,83 %
15.05.2023 11:08 15,9 C 18,9 C 12,8 C 75 % 1014,6 hPa 0,0 l/m 2 min 0 min 699 W/m 19,3 km/h (3 Bft) 94,44 %
15.05.2023 11:10 16,1 C 18,9 C 12,8 C 75 % 1014,6 hPa 0,0 l/m 2 min 0 min 734 W/m 16,1 km/h (3 Bft) 97,87 %
15.05.2023 11:12 16,1 C 19,4 C 12,8 C 74 % 1014,6 hPa 0,0 l/m 2 min 0 min 758 W/m 9,7 km/h (2 Bft) 95,65 %
15.05.2023 11:14 16,2 C 18,9 C 12,8 C 74 % 1014,5 hPa 0,0 l/m 2 min 0 min 668 W/m 12,9 km/h (3 Bft) 97,87 %
15.05.2023 11:16 16,3 C 19,4 C 12,8 C 73 % 1014,5 hPa 0,0 l/m 2 min 0 min 679 W/m 9,7 km/h (2 Bft) 95,74 %
15.05.2023 11:18 16,4 C 19,4 C 13,3 C 73 % 1014,5 hPa 0,0 l/m 2 min 0 min 670 W/m 12,9 km/h (3 Bft) 93,62 %
15.05.2023 11:20 16,6 C 19,4 C 13,3 C 73 % 1014,5 hPa 0,0 l/m 2 min 0 min 608 W/m 12,9 km/h (3 Bft) 97,87 %
15.05.2023 11:22 16,6 C 19,4 C 12,8 C 72 % 1014,5 hPa 0,0 l/m 2 min 0 min 613 W/m 19,3 km/h (3 Bft) 95,74 %
15.05.2023 11:24 16,7 C 20,0 C 13,3 C 72 % 1014,5 hPa 0,0 l/m 2 min 0 min 491 W/m 12,9 km/h (3 Bft) 97,83 %
15.05.2023 11:26 16,7 C 20,0 C 13,3 C 71 % 1014,6 hPa 0,0 l/m 2 min 0 min 749 W/m 16,1 km/h (3 Bft) 95,74 %
15.05.2023 11:28 16,8 C 20,6 C 13,3 C 71 % 1014,6 hPa 0,0 l/m 2 min 0 min 759 W/m 12,9 km/h (3 Bft) 95,74 %
15.05.2023 11:30 16,9 C 20,6 C 13,3 C 71 % 1014,5 hPa 0,0 l/m 2 min 0 min 781 W/m 6,4 km/h (2 Bft) 97,87 %
15.05.2023 11:32 17,0 C 21,1 C 13,3 C 72 % 1014,6 hPa 0,0 l/m 2 min 0 min 774 W/m 12,9 km/h (3 Bft) 97,87 %
15.05.2023 11:34 17,1 C 21,1 C 13,3 C 72 % 1014,5 hPa 0,0 l/m 2 min 0 min 788 W/m 12,9 km/h (3 Bft) 93,62 %
15.05.2023 11:36 17,3 C 21,7 C 13,9 C 71 % 1014,5 hPa 0,0 l/m 2 min 0 min 804 W/m 16,1 km/h (3 Bft) 95,65 %
15.05.2023 11:38 17,4 C 22,2 C 13,9 C 70 % 1014,5 hPa 0,0 l/m 2 min 0 min 694 W/m 12,9 km/h (3 Bft) 97,87 %
15.05.2023 11:40 17,4 C 22,2 C 13,9 C 70 % 1014,5 hPa 0,0 l/m 2 min 0 min 790 W/m 19,3 km/h (3 Bft) 100,00 %
15.05.2023 11:42 17,6 C 22,2 C 13,9 C 69 % 1014,5 hPa 0,0 l/m 2 min 0 min 790 W/m 9,7 km/h (2 Bft) 97,87 %
15.05.2023 11:44 17,6 C 22,2 C 13,9 C 69 % 1014,5 hPa 0,0 l/m 2 min 0 min 787 W/m 16,1 km/h (3 Bft) 97,87 %
15.05.2023 11:46 17,7 C 22,8 C 13,9 C 68 % 1014,5 hPa 0,0 l/m 2 min 0 min 800 W/m 12,9 km/h (3 Bft) 93,62 %
15.05.2023 11:48 17,7 C 22,8 C 14,4 C 66 % 1014,5 hPa 0,0 l/m 2 min 0 min 804 W/m 12,9 km/h (3 Bft) 97,83 %
15.05.2023 11:50 17,8 C 23,3 C 14,4 C 67 % 1014,5 hPa 0,0 l/m 2 min 0 min 812 W/m 16,1 km/h (3 Bft) 97,87 %
15.05.2023 11:52 17,9 C 23,3 C 14,4 C 66 % 1014,5 hPa 0,0 l/m 2 min 0 min 811 W/m 16,1 km/h (3 Bft) 97,87 %
15.05.2023 11:54 17,9 C 23,9 C 14,4 C 66 % 1014,5 hPa 0,0 l/m 2 min 0 min 820 W/m 12,9 km/h (3 Bft) 97,87 %
15.05.2023 11:56 18,0 C 23,9 C 14,4 C 65 % 1014,5 hPa 0,0 l/m 2 min 0 min 823 W/m 19,3 km/h (3 Bft) 97,87 %
15.05.2023 11:58 18,1 C 23,9 C 14,4 C 65 % 1014,4 hPa 0,0 l/m 2 min 0 min 829 W/m 12,9 km/h (3 Bft) 97,87 %
15.05.2023 12:00 18,2 C 23,9 C 15,0 C 64 % 1014,5 hPa 0,0 l/m 2 min 0 min 839 W/m 16,1 km/h (3 Bft) 95,74 %
15.05.2023 12:02 18,3 C 23,3 C 15,0 C 64 % 1014,4 hPa 0,0 l/m 2 min 0 min 842 W/m 16,1 km/h (3 Bft) 95,65 %
15.05.2023 12:04 18,3 C 23,3 C 15,6 C 63 % 1014,4 hPa 0,0 l/m 2 min 0 min 838 W/m 12,9 km/h (3 Bft) 95,74 %
15.05.2023 12:07 18,5 C 23,9 C 17,2 C 62 % 1014,4 hPa 0,0 l/m 3 min 0 min 837 W/m 22,5 km/h (4 Bft) 95,74 %
15.05.2023 12:08 18,5 C 23,9 C 17,8 C 62 % 1014,4 hPa 0,0 l/m 1 min 0 min 841 W/m 22,5 km/h (4 Bft) 97,92 %
15.05.2023 12:10 18,6 C 23,3 C 18,3 C 63 % 1014,4 hPa 0,0 l/m 2 min 0 min 823 W/m 12,9 km/h (3 Bft) 97,87 %
15.05.2023 12:12 18,6 C 23,9 C 18,9 C 63 % 1014,3 hPa 0,0 l/m 2 min 0 min 830 W/m 9,7 km/h (2 Bft) 97,87 %
15.05.2023 12:14 18,7 C 23,9 C 20,0 C 63 % 1014,3 hPa 0,0 l/m 2 min 0 min 824 W/m 12,9 km/h (3 Bft) 97,87 %
15.05.2023 12:16 18,8 C 24,4 C 20,6 C 64 % 1014,3 hPa 0,0 l/m 2 min 0 min 846 W/m 9,7 km/h (2 Bft) 97,87 %
15.05.2023 12:18 18,9 C 24,4 C 21,1 C 63 % 1014,3 hPa 0,0 l/m 2 min 0 min 855 W/m 16,1 km/h (3 Bft) 97,87 %
15.05.2023 12:20 18,9 C 24,4 C 21,1 C 63 % 1014,3 hPa 0,0 l/m 2 min 0 min 842 W/m 19,3 km/h (3 Bft) 97,87 %
15.05.2023 12:22 19,0 C 24,4 C 20,6 C 61 % 1014,3 hPa 0,0 l/m 2 min 0 min 851 W/m 16,1 km/h (3 Bft) 97,83 %
15.05.2023 12:24 19,1 C 25,0 C 21,7 C 61 % 1014,3 hPa 0,0 l/m 2 min 0 min 861 W/m 12,9 km/h (3 Bft) 97,87 %
15.05.2023 12:26 19,1 C 25,0 C 21,7 C 60 % 1014,4 hPa 0,0 l/m 2 min 0 min 881 W/m 12,9 km/h (3 Bft) 97,87 %
15.05.2023 12:28 19,2 C 25,6 C 22,8 C 60 % 1014,3 hPa 0,0 l/m 2 min 0 min 880 W/m 6,4 km/h (2 Bft) 97,87 %
15.05.2023 12:30 19,2 C 25,6 C 22,8 C 60 % 1014,2 hPa 0,0 l/m 2 min 0 min 876 W/m 19,3 km/h (3 Bft) 97,14 %
15.05.2023 12:32 19,3 C 25,6 C 22,8 C 60 % 1014,2 hPa 0,0 l/m 2 min 0 min 879 W/m 12,9 km/h (3 Bft) 95,74 %
15.05.2023 12:34 19,4 C 26,1 C 23,3 C 59 % 1014,2 hPa 0,0 l/m 2 min 0 min 876 W/m 12,9 km/h (3 Bft) 95,74 %
15.05.2023 12:36 19,4 C 26,1 C 23,3 C 59 % 1014,2 hPa 0,0 l/m 2 min 0 min 885 W/m 16,1 km/h (3 Bft) 97,87 %
15.05.2023 12:38 19,5 C 25,6 C 23,3 C 58 % 1014,2 hPa 0,0 l/m 2 min 0 min 890 W/m 6,4 km/h (2 Bft) 97,83 %
15.05.2023 12:40 19,6 C 26,1 C 23,3 C 58 % 1014,2 hPa 0,0 l/m 2 min 0 min 877 W/m 12,9 km/h (3 Bft) 95,74 %
15.05.2023 12:42 19,7 C 25,6 C 23,9 C 57 % 1014,2 hPa 0,0 l/m 2 min 0 min 896 W/m 9,7 km/h (2 Bft) 97,87 %
15.05.2023 12:44 19,8 C 25,6 C 23,3 C 57 % 1014,2 hPa 0,0 l/m 2 min 0 min 884 W/m 16,1 km/h (3 Bft) 97,87 %
15.05.2023 12:46 19,8 C 25,6 C 23,3 C 56 % 1014,2 hPa 0,0 l/m 2 min 0 min 876 W/m 12,9 km/h (3 Bft) 97,87 %
15.05.2023 12:48 19,9 C 26,1 C 23,3 C 57 % 1014,1 hPa 0,0 l/m 2 min 0 min 905 W/m 12,9 km/h (3 Bft) 97,87 %
15.05.2023 12:50 20,0 C 26,1 C 22,8 C 55 % 1014,1 hPa 0,0 l/m 2 min 0 min 901 W/m 19,3 km/h (3 Bft) 95,65 %
15.05.2023 12:52 20,1 C 26,1 C 22,8 C 56 % 1014,1 hPa 0,0 l/m 2 min 0 min 932 W/m 12,9 km/h (3 Bft) 93,62 %
15.05.2023 12:54 20,2 C 26,1 C 22,8 C 56 % 1014,1 hPa 0,0 l/m 2 min 0 min 940 W/m 22,5 km/h (4 Bft) 89,36 %
15.05.2023 12:56 20,3 C 25,6 C 22,2 C 55 % 1014,1 hPa 0,0 l/m 2 min 0 min 860 W/m 22,5 km/h (4 Bft) 95,74 %
15.05.2023 12:58 20,3 C 25,6 C 21,7 C 54 % 1014,1 hPa 0,0 l/m 2 min 0 min 885 W/m 12,9 km/h (3 Bft) 95,74 %
15.05.2023 13:00 20,3 C 26,1 C 21,7 C 54 % 1014,1 hPa 0,0 l/m 2 min 0 min 916 W/m 12,9 km/h (3 Bft) 95,74 %
15.05.2023 13:02 20,4 C 26,1 C 20,0 C 54 % 1014,1 hPa 0,0 l/m 2 min 0 min 902 W/m 19,3 km/h (3 Bft) 95,65 %
15.05.2023 13:04 20,4 C 26,1 C 19,4 C 54 % 1014,1 hPa 0,0 l/m 2 min 0 min 918 W/m 16,1 km/h (3 Bft) 93,75 %
15.05.2023 13:06 20,4 C 26,1 C 18,3 C 54 % 1014,0 hPa 0,0 l/m 2 min 0 min 908 W/m 12,9 km/h (3 Bft) 93,22 %
15.05.2023 13:08 20,4 C 25,6 C 17,8 C 55 % 1014,0 hPa 0,0 l/m 2 min 0 min 903 W/m 19,3 km/h (3 Bft) 97,14 %
15.05.2023 13:10 20,4 C 25,6 C 17,2 C 56 % 1014,0 hPa 0,0 l/m 2 min 0 min 920 W/m 16,1 km/h (3 Bft) 90,91 %
15.05.2023 13:12 20,5 C 25,6 C 17,2 C 55 % 1013,9 hPa 0,0 l/m 2 min 0 min 911 W/m 12,9 km/h (3 Bft) 93,62 %
15.05.2023 13:14 20,6 C 26,7 C 17,2 C 56 % 1014,0 hPa 0,0 l/m 2 min 0 min 902 W/m 12,9 km/h (3 Bft) 93,62 %
15.05.2023 13:16 20,6 C 26,7 C 16,7 C 56 % 1013,9 hPa 0,0 l/m 2 min 0 min 909 W/m 12,9 km/h (3 Bft) 93,62 %
15.05.2023 13:18 20,5 C 26,1 C 16,7 C 57 % 1013,9 hPa 0,0 l/m 2 min 0 min 917 W/m 12,9 km/h (3 Bft) 93,48 %
15.05.2023 13:20 20,4 C 26,1 C 16,7 C 55 % 1013,9 hPa 0,0 l/m 2 min 0 min 914 W/m 19,3 km/h (3 Bft) 93,62 %
15.05.2023 13:22 20,4 C 26,1 C 16,7 C 55 % 1013,9 hPa 0,0 l/m 2 min 0 min 919 W/m 22,5 km/h (4 Bft) 93,62 %
15.05.2023 13:24 20,5 C 27,2 C 17,2 C 55 % 1013,9 hPa 0,0 l/m 2 min 0 min 930 W/m 12,9 km/h (3 Bft) 93,62 %
15.05.2023 13:26 20,6 C 27,2 C 17,2 C 53 % 1013,9 hPa 0,0 l/m 2 min 0 min 925 W/m 12,9 km/h (3 Bft) 93,62 %
15.05.2023 13:28 20,7 C 26,7 C 18,3 C 54 % 1013,8 hPa 0,0 l/m 2 min 0 min 919 W/m 12,9 km/h (3 Bft) 95,74 %
15.05.2023 13:30 20,8 C 27,2 C 20,0 C 54 % 1013,8 hPa 0,0 l/m 2 min 0 min 907 W/m 16,1 km/h (3 Bft) 95,65 %
15.05.2023 13:32 20,8 C 26,7 C 21,1 C 53 % 1013,8 hPa 0,0 l/m 2 min 0 min 883 W/m 19,3 km/h (3 Bft) 93,62 %
15.05.2023 13:34 20,9 C 27,2 C 22,2 C 54 % 1013,9 hPa 0,0 l/m 2 min 0 min 903 W/m 16,1 km/h (3 Bft) 97,87 %
15.05.2023 13:36 21,0 C 26,1 C 22,2 C 54 % 1013,8 hPa 0,0 l/m 2 min 0 min 907 W/m 19,3 km/h (3 Bft) 97,87 %
15.05.2023 13:38 20,9 C 25,6 C 21,7 C 54 % 1013,8 hPa 0,0 l/m 2 min 0 min 828 W/m 19,3 km/h (3 Bft) 97,87 %
15.05.2023 13:40 20,9 C 26,1 C 22,2 C 54 % 1013,7 hPa 0,0 l/m 2 min 0 min 772 W/m 9,7 km/h (2 Bft) 100,00 %
15.05.2023 13:42 21,0 C 26,1 C 22,2 C 54 % 1013,7 hPa 0,0 l/m 2 min 0 min 772 W/m 9,7 km/h (2 Bft) 97,83 %
15.05.2023 13:44 21,0 C 25,6 C 21,7 C 53 % 1013,7 hPa 0,0 l/m 2 min 0 min 691 W/m 12,9 km/h (3 Bft) 100,00 %
15.05.2023 13:46 20,9 C 25,0 C 20,6 C 51 % 1013,7 hPa 0,0 l/m 2 min 0 min 591 W/m 16,1 km/h (3 Bft) 100,00 %
15.05.2023 13:48 20,8 C 25,0 C 20,0 C 52 % 1013,6 hPa 0,0 l/m 2 min 0 min 665 W/m 12,9 km/h (3 Bft) 100,00 %
15.05.2023 13:50 20,8 C 26,1 C 19,4 C 53 % 1013,6 hPa 0,0 l/m 2 min 0 min 835 W/m 9,7 km/h (2 Bft) 100,00 %
15.05.2023 13:52 20,9 C 27,2 C 19,4 C 54 % 1013,6 hPa 0,0 l/m 2 min 0 min 908 W/m 16,1 km/h (3 Bft) 100,00 %
15.05.2023 13:54 20,9 C 27,8 C 18,3 C 54 % 1013,6 hPa 0,0 l/m 2 min 0 min 968 W/m 16,1 km/h (3 Bft) 100,00 %
15.05.2023 13:56 21,1 C 27,8 C 18,3 C 54 % 1013,6 hPa 0,0 l/m 2 min 0 min 938 W/m 16,1 km/h (3 Bft) 100,00 %
15.05.2023 13:58 21,1 C 27,8 C 17,8 C 54 % 1013,5 hPa 0,0 l/m 2 min 0 min 794 W/m 16,1 km/h (3 Bft) 100,00 %
15.05.2023 14:00 21,2 C 28,9 C 17,8 C 54 % 1013,5 hPa 0,0 l/m 2 min 0 min 858 W/m 9,7 km/h (2 Bft) 100,00 %
15.05.2023 14:02 21,3 C 27,8 C 17,8 C 54 % 1013,5 hPa 0,0 l/m 2 min 0 min 895 W/m 19,3 km/h (3 Bft) 100,00 %
15.05.2023 14:04 21,4 C 26,7 C 17,2 C 52 % 1013,5 hPa 0,0 l/m 2 min 0 min 843 W/m 25,7 km/h (4 Bft) 100,00 %
15.05.2023 14:06 21,4 C 27,2 C 17,2 C 52 % 1013,5 hPa 0,0 l/m 2 min 0 min 890 W/m 19,3 km/h (3 Bft) 100,00 %
15.05.2023 14:08 21,4 C 27,2 C 17,2 C 54 % 1013,4 hPa 0,0 l/m 2 min 0 min 807 W/m 12,9 km/h (3 Bft) 100,00 %
15.05.2023 14:10 21,4 C 27,8 C 17,2 C 54 % 1013,5 hPa 0,0 l/m 2 min 0 min 862 W/m 22,5 km/h (4 Bft) 100,00 %
15.05.2023 14:12 21,4 C 26,7 C 17,2 C 53 % 1013,4 hPa 0,0 l/m 2 min 0 min 947 W/m 22,5 km/h (4 Bft) 100,00 %
15.05.2023 14:14 21,4 C 26,7 C 16,7 C 53 % 1013,4 hPa 0,0 l/m 2 min 0 min 898 W/m 25,7 km/h (4 Bft) 100,00 %
15.05.2023 14:16 21,3 C 26,1 C 16,7 C 55 % 1013,4 hPa 0,0 l/m 2 min 0 min 812 W/m 22,5 km/h (4 Bft) 100,00 %
15.05.2023 14:18 21,3 C 26,1 C 16,7 C 54 % 1013,4 hPa 0,0 l/m 2 min 0 min 813 W/m 19,3 km/h (3 Bft) 100,00 %
15.05.2023 14:20 21,3 C 26,7 C 16,7 C 55 % 1013,4 hPa 0,0 l/m 2 min 0 min 903 W/m 16,1 km/h (3 Bft) 100,00 %
15.05.2023 14:22 21,3 C 27,2 C 16,7 C 55 % 1013,4 hPa 0,0 l/m 2 min 0 min 932 W/m 22,5 km/h (4 Bft) 100,00 %
15.05.2023 14:24 21,3 C 27,2 C 16,7 C 56 % 1013,4 hPa 0,0 l/m 2 min 0 min 908 W/m 19,3 km/h (3 Bft) 97,87 %
15.05.2023 14:26 21,4 C 27,8 C 16,7 C 56 % 1013,3 hPa 0,0 l/m 2 min 0 min 889 W/m 29,0 km/h (5 Bft) 100,00 %
15.05.2023 14:28 21,5 C 27,8 C 16,7 C 56 % 1013,4 hPa 0,0 l/m 2 min 0 min 892 W/m 19,3 km/h (3 Bft) 100,00 %
15.05.2023 14:30 21,6 C 27,2 C 16,7 C 56 % 1013,4 hPa 0,0 l/m 2 min 0 min 893 W/m 22,5 km/h (4 Bft) 100,00 %
15.05.2023 14:32 21,6 C 27,2 C 16,7 C 56 % 1013,3 hPa 0,0 l/m 2 min 0 min 910 W/m 12,9 km/h (3 Bft) 100,00 %
15.05.2023 14:34 21,6 C 27,2 C 16,7 C 56 % 1013,4 hPa 0,0 l/m 2 min 0 min 905 W/m 22,5 km/h (4 Bft) 100,00 %
15.05.2023 14:36 21,6 C 27,2 C 16,7 C 56 % 1013,3 hPa 0,0 l/m 2 min 0 min 931 W/m 16,1 km/h (3 Bft) 100,00 %
15.05.2023 14:38 21,6 C 27,8 C 16,7 C 57 % 1013,3 hPa 0,0 l/m 2 min 0 min 938 W/m 12,9 km/h (3 Bft) 100,00 %
15.05.2023 14:40 21,7 C 27,8 C 17,2 C 57 % 1013,3 hPa 0,0 l/m 2 min 0 min 962 W/m 12,9 km/h (3 Bft) 97,87 %
15.05.2023 14:42 21,7 C 27,8 C 16,7 C 56 % 1013,3 hPa 0,0 l/m 2 min 0 min 998 W/m 16,1 km/h (3 Bft) 100,00 %
15.05.2023 14:44 21,8 C 27,8 C 17,2 C 57 % 1013,4 hPa 0,0 l/m 2 min 0 min 1000 W/m 19,3 km/h (3 Bft) 100,00 %
15.05.2023 14:46 21,9 C 27,8 C 17,2 C 55 % 1013,3 hPa 0,0 l/m 2 min 0 min 995 W/m 22,5 km/h (4 Bft) 100,00 %
15.05.2023 14:48 22,0 C 27,2 C 17,2 C 56 % 1013,3 hPa 0,0 l/m 2 min 0 min 974 W/m 16,1 km/h (3 Bft) 97,87 %
15.05.2023 14:50 22,0 C 25,0 C 17,2 C 57 % 1013,3 hPa 0,0 l/m 2 min 0 min 935 W/m 32,2 km/h (5 Bft) 100,00 %
15.05.2023 14:52 21,8 C 22,8 C 16,7 C 58 % 1013,3 hPa 0,0 l/m 0 min 0 min 382 W/m 38,6 km/h (5 Bft) 97,87 %
15.05.2023 14:54 21,5 C 22,2 C 16,1 C 59 % 1013,4 hPa 0,0 l/m 2 min 0 min 432 W/m 32,2 km/h (5 Bft) 100,00 %
15.05.2023 14:56 21,3 C 22,8 C 16,1 C 60 % 1013,4 hPa 0,0 l/m 2 min 0 min 534 W/m 22,5 km/h (4 Bft) 97,87 %
15.05.2023 14:58 20,9 C 22,2 C 16,1 C 60 % 1013,4 hPa 0,0 l/m 2 min 0 min 653 W/m 22,5 km/h (4 Bft) 100,00 %
15.05.2023 15:00 20,8 C 22,2 C 16,1 C 61 % 1013,5 hPa 0,0 l/m 2 min 0 min 656 W/m 22,5 km/h (4 Bft) 100,00 %
15.05.2023 15:02 20,6 C 21,7 C 15,6 C 62 % 1013,4 hPa 0,0 l/m 2 min 0 min 459 W/m 22,5 km/h (4 Bft) 97,87 %
15.05.2023 15:06 20,3 C 21,1 C 15,6 C 62 % 1013,5 hPa 0,0 l/m 4 min 0 min 437 W/m 19,3 km/h (3 Bft) 95,83 %
15.05.2023 15:08 20,2 C 21,1 C 15,6 C 63 % 1013,5 hPa 0,0 l/m 2 min 0 min 447 W/m 22,5 km/h (4 Bft) 100,00 %
15.05.2023 15:10 20,1 C 20,6 C 15,6 C 62 % 1013,4 hPa 0,0 l/m 0 min 0 min 380 W/m 22,5 km/h (4 Bft) 97,87 %
15.05.2023 15:12 19,9 C 20,6 C 15,6 C 63 % 1013,5 hPa 0,0 l/m 2 min 0 min 393 W/m 25,7 km/h (4 Bft) 97,87 %
15.05.2023 15:14 19,8 C 20,6 C 15,6 C 63 % 1013,5 hPa 0,0 l/m 2 min 0 min 426 W/m 22,5 km/h (4 Bft) 97,87 %
15.05.2023 15:16 19,7 C 21,1 C 15,0 C 62 % 1013,4 hPa 0,0 l/m 2 min 0 min 438 W/m 22,5 km/h (4 Bft) 97,87 %
15.05.2023 15:18 19,6 C 21,1 C 15,6 C 63 % 1013,5 hPa 0,0 l/m 2 min 0 min 421 W/m 16,1 km/h (3 Bft) 97,87 %
15.05.2023 15:20 19,6 C 21,1 C 15,0 C 63 % 1013,5 hPa 0,0 l/m 2 min 0 min 426 W/m 22,5 km/h (4 Bft) 97,87 %
15.05.2023 15:22 19,6 C 21,1 C 15,0 C 63 % 1013,5 hPa 0,0 l/m 2 min 0 min 496 W/m 32,2 km/h (5 Bft) 93,48 %
15.05.2023 15:24 19,4 C 21,1 C 15,0 C 62 % 1013,5 hPa 0,0 l/m 2 min 0 min 457 W/m 22,5 km/h (4 Bft) 95,74 %
15.05.2023 15:26 19,4 C 22,2 C 15,6 C 63 % 1013,5 hPa 0,0 l/m 2 min 0 min 689 W/m 19,3 km/h (3 Bft) 93,62 %
15.05.2023 15:28 19,5 C 22,8 C 15,6 C 63 % 1013,5 hPa 0,0 l/m 2 min 0 min 687 W/m 19,3 km/h (3 Bft) 93,62 %
15.05.2023 15:30 19,6 C 22,2 C 15,6 C 62 % 1013,5 hPa 0,0 l/m 2 min 0 min 594 W/m 25,7 km/h (4 Bft) 95,74 %
15.05.2023 15:32 19,6 C 22,2 C 15,6 C 61 % 1013,5 hPa 0,0 l/m 2 min 0 min 590 W/m 12,9 km/h (3 Bft) 93,62 %
15.05.2023 15:34 19,6 C 22,8 C 15,6 C 61 % 1013,5 hPa 0,0 l/m 2 min 0 min 706 W/m 19,3 km/h (3 Bft) 95,65 %
15.05.2023 15:36 19,7 C 22,8 C 15,6 C 62 % 1013,5 hPa 0,0 l/m 2 min 0 min 537 W/m 22,5 km/h (4 Bft) 95,74 %
15.05.2023 15:38 19,8 C 23,3 C 15,6 C 62 % 1013,5 hPa 0,0 l/m 2 min 0 min 648 W/m 19,3 km/h (3 Bft) 95,74 %
15.05.2023 15:40 19,8 C 23,3 C 15,6 C 63 % 1013,6 hPa 0,0 l/m 2 min 0 min 775 W/m 25,7 km/h (4 Bft) 95,74 %
15.05.2023 15:42 19,9 C 23,3 C 15,6 C 62 % 1013,5 hPa 0,0 l/m 2 min 0 min 804 W/m 19,3 km/h (3 Bft) 95,74 %
15.05.2023 15:44 19,9 C 23,3 C 15,6 C 62 % 1013,5 hPa 0,0 l/m 2 min 0 min 830 W/m 25,7 km/h (4 Bft) 95,74 %
15.05.2023 15:46 19,9 C 23,3 C 15,6 C 62 % 1013,5 hPa 0,0 l/m 2 min 0 min 838 W/m 22,5 km/h (4 Bft) 95,74 %
15.05.2023 15:48 19,9 C 23,9 C 15,6 C 63 % 1013,5 hPa 0,0 l/m 2 min 0 min 797 W/m 25,7 km/h (4 Bft) 97,83 %
15.05.2023 15:50 19,9 C 23,9 C 15,6 C 63 % 1013,5 hPa 0,0 l/m 2 min 0 min 819 W/m 25,7 km/h (4 Bft) 97,87 %
15.05.2023 15:52 20,0 C 23,3 C 15,6 C 62 % 1013,5 hPa 0,0 l/m 2 min 0 min 772 W/m 22,5 km/h (4 Bft) 97,87 %
15.05.2023 15:54 20,1 C 23,9 C 16,1 C 64 % 1013,5 hPa 0,0 l/m 2 min 0 min 793 W/m 19,3 km/h (3 Bft) 95,74 %
15.05.2023 15:56 20,1 C 23,3 C 16,1 C 63 % 1013,5 hPa 0,0 l/m 2 min 0 min 681 W/m 16,1 km/h (3 Bft) 97,87 %
15.05.2023 15:58 20,1 C 22,8 C 15,6 C 62 % 1013,5 hPa 0,0 l/m 2 min 0 min 691 W/m 25,7 km/h (4 Bft) 97,87 %
15.05.2023 16:00 20,0 C 22,2 C 15,6 C 62 % 1013,6 hPa 0,0 l/m 2 min 0 min 617 W/m 22,5 km/h (4 Bft) 97,83 %
15.05.2023 16:02 19,9 C 21,7 C 15,6 C 61 % 1013,7 hPa 0,0 l/m 2 min 0 min 530 W/m 35,4 km/h (5 Bft) 95,74 %
15.05.2023 16:04 19,8 C 21,7 C 15,0 C 60 % 1013,7 hPa 0,0 l/m 2 min 0 min 677 W/m 25,7 km/h (4 Bft) 97,87 %
15.05.2023 16:06 19,6 C 21,1 C 15,0 C 60 % 1013,6 hPa 0,0 l/m 2 min 0 min 689 W/m 16,1 km/h (3 Bft) 100,00 %
15.05.2023 16:08 19,5 C 21,1 C 15,0 C 59 % 1013,6 hPa 0,0 l/m 2 min 0 min 606 W/m 29,0 km/h (5 Bft) 97,87 %
15.05.2023 16:10 19,4 C 20,6 C 15,0 C 60 % 1013,7 hPa 0,0 l/m 2 min 0 min 550 W/m 19,3 km/h (3 Bft) 100,00 %
15.05.2023 16:12 19,3 C 20,0 C 15,0 C 60 % 1013,6 hPa 0,0 l/m 2 min 0 min 406 W/m 25,7 km/h (4 Bft) 95,65 %
15.05.2023 16:14 19,3 C 20,0 C 15,0 C 60 % 1013,6 hPa 0,0 l/m 2 min 0 min 415 W/m 19,3 km/h (3 Bft) 97,87 %
15.05.2023 16:16 19,2 C 19,4 C 15,0 C 62 % 1013,7 hPa 0,0 l/m 2 min 0 min 422 W/m 29,0 km/h (5 Bft) 97,87 %
15.05.2023 16:18 19,1 C 20,0 C 15,0 C 63 % 1013,7 hPa 0,0 l/m 2 min 0 min 499 W/m 35,4 km/h (5 Bft) 95,74 %
15.05.2023 16:20 19,1 C 21,1 C 15,0 C 64 % 1013,7 hPa 0,0 l/m 2 min 0 min 656 W/m 19,3 km/h (3 Bft) 95,74 %
15.05.2023 16:22 19,1 C 21,1 C 15,0 C 63 % 1013,7 hPa 0,0 l/m 2 min 0 min 609 W/m 22,5 km/h (4 Bft) 97,87 %
15.05.2023 16:24 19,1 C 21,1 C 15,0 C 63 % 1013,7 hPa 0,0 l/m 2 min 0 min 560 W/m 22,5 km/h (4 Bft) 95,74 %
15.05.2023 16:26 19,2 C 21,7 C 15,0 C 61 % 1013,6 hPa 0,0 l/m 2 min 0 min 543 W/m 19,3 km/h (3 Bft) 97,83 %
15.05.2023 16:28 19,2 C 22,2 C 15,6 C 62 % 1013,6 hPa 0,0 l/m 2 min 0 min 546 W/m 22,5 km/h (4 Bft) 97,87 %
15.05.2023 16:30 19,2 C 21,7 C 15,6 C 63 % 1013,6 hPa 0,0 l/m 2 min 0 min 558 W/m 16,1 km/h (3 Bft) 97,87 %
15.05.2023 16:32 19,2 C 20,6 C 15,0 C 64 % 1013,6 hPa 0,0 l/m 2 min 0 min 547 W/m 25,7 km/h (4 Bft) 97,87 %
15.05.2023 16:34 19,1 C 20,6 C 15,0 C 65 % 1013,6 hPa 0,0 l/m 2 min 0 min 505 W/m 25,7 km/h (4 Bft) 97,87 %
15.05.2023 16:36 19,0 C 20,0 C 15,0 C 66 % 1013,7 hPa 0,0 l/m 2 min 0 min 445 W/m 25,7 km/h (4 Bft) 97,87 %
15.05.2023 16:38 18,9 C 19,4 C 15,0 C 67 % 1013,8 hPa 0,0 l/m 2 min 0 min 438 W/m 29,0 km/h (5 Bft) 97,87 %
15.05.2023 16:40 18,8 C 19,4 C 15,0 C 67 % 1013,7 hPa 0,0 l/m 2 min 0 min 510 W/m 22,5 km/h (4 Bft) 97,83 %
15.05.2023 16:42 18,8 C 20,0 C 15,0 C 68 % 1013,7 hPa 0,0 l/m 2 min 0 min 465 W/m 25,7 km/h (4 Bft) 95,74 %
15.05.2023 16:44 18,8 C 20,0 C 15,0 C 68 % 1013,8 hPa 0,0 l/m 2 min 0 min 393 W/m 22,5 km/h (4 Bft) 97,87 %
15.05.2023 16:46 18,7 C 19,4 C 14,4 C 68 % 1013,8 hPa 0,0 l/m 2 min 0 min 368 W/m 25,7 km/h (4 Bft) 97,87 %
15.05.2023 16:48 18,6 C 18,9 C 14,4 C 69 % 1013,8 hPa 0,0 l/m 2 min 0 min 335 W/m 22,5 km/h (4 Bft) 97,87 %
15.05.2023 16:50 18,6 C 18,9 C 14,4 C 69 % 1013,9 hPa 0,0 l/m 2 min 0 min 322 W/m 25,7 km/h (4 Bft) 95,74 %
15.05.2023 16:52 18,4 C 18,3 C 14,4 C 70 % 1013,9 hPa 0,0 l/m 0 min 0 min 287 W/m 25,7 km/h (4 Bft) 95,65 %
15.05.2023 16:54 18,4 C 18,3 C 13,9 C 70 % 1013,9 hPa 0,0 l/m 0 min 0 min 258 W/m 25,7 km/h (4 Bft) 97,87 %
15.05.2023 16:56 18,3 C 17,8 C 13,9 C 71 % 1014,0 hPa 0,0 l/m 0 min 0 min 239 W/m 16,1 km/h (3 Bft) 97,87 %
15.05.2023 16:58 18,2 C 17,8 C 13,9 C 71 % 1014,0 hPa 0,0 l/m 0 min 0 min 232 W/m 35,4 km/h (5 Bft) 95,74 %
15.05.2023 17:00 18,0 C 17,2 C 13,3 C 71 % 1014,0 hPa 0,0 l/m 0 min 0 min 237 W/m 25,7 km/h (4 Bft) 97,87 %
15.05.2023 17:02 17,9 C 17,8 C 13,3 C 72 % 1014,1 hPa 0,0 l/m 0 min 0 min 238 W/m 19,3 km/h (3 Bft) 97,87 %
15.05.2023 17:04 17,9 C 17,2 C 13,3 C 73 % 1014,0 hPa 0,0 l/m 0 min 0 min 239 W/m 19,3 km/h (3 Bft) 95,65 %
15.05.2023 17:06 17,7 C 17,2 C 13,3 C 73 % 1014,0 hPa 0,0 l/m 0 min 0 min 241 W/m 25,7 km/h (4 Bft) 97,87 %
15.05.2023 17:08 17,6 C 17,2 C 13,3 C 73 % 1014,0 hPa 0,0 l/m 0 min 0 min 241 W/m 16,1 km/h (3 Bft) 97,87 %
15.05.2023 17:10 17,5 C 17,2 C 13,3 C 73 % 1014,0 hPa 0,0 l/m 0 min 0 min 239 W/m 29,0 km/h (5 Bft) 95,74 %
15.05.2023 17:12 17,3 C 17,2 C 13,3 C 74 % 1014,0 hPa 0,0 l/m 0 min 0 min 235 W/m 22,5 km/h (4 Bft) 97,87 %
15.05.2023 17:14 17,2 C 17,2 C 13,3 C 74 % 1014,0 hPa 0,0 l/m 0 min 0 min 234 W/m 22,5 km/h (4 Bft) 97,87 %
15.05.2023 17:16 17,1 C 17,2 C 13,3 C 74 % 1014,1 hPa 0,0 l/m 0 min 0 min 235 W/m 22,5 km/h (4 Bft) 97,87 %
15.05.2023 17:18 17,1 C 17,2 C 13,3 C 74 % 1014,0 hPa 0,0 l/m 0 min 0 min 235 W/m 22,5 km/h (4 Bft) 97,83 %
15.05.2023 17:20 17,1 C 17,2 C 13,3 C 74 % 1014,1 hPa 0,0 l/m 0 min 0 min 231 W/m 22,5 km/h (4 Bft) 97,87 %
15.05.2023 17:22 17,0 C 17,2 C 12,8 C 74 % 1014,1 hPa 0,0 l/m 0 min 0 min 222 W/m 25,7 km/h (4 Bft) 95,74 %
15.05.2023 17:24 16,9 C 17,2 C 13,3 C 73 % 1014,1 hPa 0,0 l/m 0 min 0 min 222 W/m 29,0 km/h (5 Bft) 97,87 %
15.05.2023 17:26 16,9 C 17,2 C 13,3 C 73 % 1014,0 hPa 0,0 l/m 0 min 0 min 233 W/m 22,5 km/h (4 Bft) 97,87 %
15.05.2023 17:28 16,9 C 17,2 C 13,3 C 73 % 1014,1 hPa 0,0 l/m 0 min 0 min 245 W/m 22,5 km/h (4 Bft) 97,87 %
15.05.2023 17:30 16,9 C 17,2 C 13,3 C 74 % 1014,1 hPa 0,0 l/m 0 min 0 min 262 W/m 19,3 km/h (3 Bft) 97,87 %
15.05.2023 17:32 16,9 C 17,2 C 13,3 C 73 % 1014,1 hPa 0,0 l/m 0 min 0 min 264 W/m 22,5 km/h (4 Bft) 97,83 %
15.05.2023 17:34 16,9 C 17,2 C 13,3 C 74 % 1014,1 hPa 0,0 l/m 0 min 0 min 261 W/m 19,3 km/h (3 Bft) 97,87 %
15.05.2023 17:36 17,0 C 17,2 C 13,3 C 74 % 1014,1 hPa 0,0 l/m 0 min 0 min 259 W/m 19,3 km/h (3 Bft) 100,00 %
15.05.2023 17:38 17,0 C 17,8 C 13,9 C 74 % 1014,1 hPa 0,0 l/m 0 min 0 min 258 W/m 22,5 km/h (4 Bft) 97,87 %
15.05.2023 17:40 17,1 C 17,2 C 13,3 C 74 % 1014,1 hPa 0,0 l/m 0 min 0 min 250 W/m 19,3 km/h (3 Bft) 100,00 %
15.05.2023 17:42 17,1 C 17,8 C 13,3 C 73 % 1014,1 hPa 0,0 l/m 0 min 0 min 234 W/m 16,1 km/h (3 Bft) 97,87 %
15.05.2023 17:44 17,1 C 17,8 C 13,3 C 73 % 1014,1 hPa 0,0 l/m 0 min 0 min 223 W/m 25,7 km/h (4 Bft) 97,83 %
15.05.2023 17:46 17,1 C 17,8 C 13,3 C 73 % 1014,2 hPa 0,0 l/m 0 min 0 min 222 W/m 16,1 km/h (3 Bft) 97,87 %
15.05.2023 17:48 17,1 C 17,8 C 13,3 C 72 % 1014,1 hPa 0,0 l/m 0 min 0 min 237 W/m 22,5 km/h (4 Bft) 100,00 %
15.05.2023 17:50 17,1 C 17,2 C 13,3 C 72 % 1014,1 hPa 0,0 l/m 2 min 0 min 257 W/m 25,7 km/h (4 Bft) 100,00 %
15.05.2023 17:52 17,2 C 17,8 C 13,3 C 73 % 1014,1 hPa 0,0 l/m 2 min 0 min 273 W/m 12,9 km/h (3 Bft) 100,00 %
15.05.2023 17:54 17,2 C 18,3 C 13,9 C 73 % 1014,1 hPa 0,0 l/m 2 min 0 min 301 W/m 25,7 km/h (4 Bft) 100,00 %
15.05.2023 17:56 17,3 C 18,3 C 13,9 C 73 % 1014,1 hPa 0,0 l/m 2 min 0 min 291 W/m 16,1 km/h (3 Bft) 100,00 %
15.05.2023 17:58 17,3 C 18,9 C 13,9 C 73 % 1014,1 hPa 0,0 l/m 2 min 0 min 319 W/m 19,3 km/h (3 Bft) 100,00 %
15.05.2023 18:00 17,4 C 18,9 C 13,9 C 73 % 1014,1 hPa 0,0 l/m 2 min 0 min 320 W/m 22,5 km/h (4 Bft) 100,00 %
15.05.2023 18:02 17,4 C 19,4 C 13,9 C 73 % 1014,0 hPa 0,0 l/m 2 min 0 min 415 W/m 25,7 km/h (4 Bft) 97,87 %
15.05.2023 18:04 17,6 C 20,0 C 14,4 C 73 % 1014,1 hPa 0,0 l/m 2 min 0 min 489 W/m 22,5 km/h (4 Bft) 97,87 %
15.05.2023 18:07 17,7 C 18,9 C 14,4 C 72 % 1014,2 hPa 0,0 l/m 3 min 0 min 324 W/m 19,3 km/h (3 Bft) 97,26 %
15.05.2023 18:08 17,7 C 18,9 C 14,4 C 72 % 1014,2 hPa 0,0 l/m 1 min 0 min 247 W/m 22,5 km/h (4 Bft) 91,67 %
15.05.2023 18:12 17,7 C 17,8 C 13,9 C 71 % 1014,1 hPa 0,0 l/m 0 min 0 min 166 W/m 25,7 km/h (4 Bft) 98,31 %
15.05.2023 18:14 17,7 C 17,2 C 13,9 C 71 % 1014,2 hPa 0,0 l/m 0 min 0 min 161 W/m 25,7 km/h (4 Bft) 97,87 %
15.05.2023 18:16 17,7 C 17,2 C 13,3 C 71 % 1014,1 hPa 0,0 l/m 0 min 0 min 166 W/m 16,1 km/h (3 Bft) 98,11 %
15.05.2023 18:18 17,6 C 17,2 C 13,3 C 71 % 1014,1 hPa 0,0 l/m 0 min 0 min 172 W/m 16,1 km/h (3 Bft) 95,74 %
15.05.2023 18:20 17,6 C 17,8 C 13,3 C 71 % 1014,1 hPa 0,0 l/m 0 min 0 min 182 W/m 22,5 km/h (4 Bft) 95,65 %
15.05.2023 18:22 17,6 C 18,9 C 13,9 C 70 % 1014,1 hPa 0,0 l/m 2 min 0 min 388 W/m 22,5 km/h (4 Bft) 97,87 %
15.05.2023 18:24 17,6 C 20,0 C 13,9 C 70 % 1014,0 hPa 0,0 l/m 2 min 0 min 403 W/m 16,1 km/h (3 Bft) 97,87 %
15.05.2023 18:26 17,6 C 20,0 C 14,4 C 69 % 1014,0 hPa 0,0 l/m 2 min 0 min 459 W/m 25,7 km/h (4 Bft) 97,87 %
15.05.2023 18:28 17,7 C 19,4 C 14,4 C 69 % 1014,1 hPa 0,0 l/m 2 min 0 min 288 W/m 25,7 km/h (4 Bft) 97,87 %
15.05.2023 18:30 17,7 C 18,9 C 14,4 C 69 % 1014,0 hPa 0,0 l/m 2 min 0 min 212 W/m 19,3 km/h (3 Bft) 97,87 %
15.05.2023 18:32 17,7 C 18,3 C 13,9 C 70 % 1014,1 hPa 0,0 l/m 2 min 0 min 201 W/m 16,1 km/h (3 Bft) 100,00 %
15.05.2023 18:34 17,7 C 17,8 C 13,9 C 70 % 1014,1 hPa 0,0 l/m 0 min 0 min 189 W/m 22,5 km/h (4 Bft) 97,83 %
15.05.2023 18:36 17,6 C 17,2 C 13,3 C 71 % 1014,2 hPa 0,0 l/m 0 min 0 min 172 W/m 19,3 km/h (3 Bft) 97,87 %
15.05.2023 18:38 17,5 C 17,2 C 13,3 C 71 % 1014,2 hPa 0,0 l/m 0 min 0 min 158 W/m 19,3 km/h (3 Bft) 97,87 %
15.05.2023 18:40 17,5 C 17,2 C 13,3 C 72 % 1014,0 hPa 0,0 l/m 0 min 0 min 154 W/m 16,1 km/h (3 Bft) 97,87 %
15.05.2023 18:42 17,5 C 17,2 C 13,3 C 73 % 1014,1 hPa 0,0 l/m 0 min 0 min 148 W/m 19,3 km/h (3 Bft) 97,87 %
15.05.2023 18:44 17,4 C 17,2 C 13,3 C 73 % 1014,2 hPa 0,0 l/m 0 min 0 min 144 W/m 19,3 km/h (3 Bft) 97,87 %
15.05.2023 18:46 17,4 C 17,2 C 13,3 C 74 % 1014,1 hPa 0,0 l/m 0 min 0 min 145 W/m 29,0 km/h (5 Bft) 100,00 %
15.05.2023 18:48 17,3 C 16,7 C 13,3 C 74 % 1014,2 hPa 0,0 l/m 0 min 0 min 167 W/m 35,4 km/h (5 Bft) 100,00 %
15.05.2023 18:50 17,2 C 17,2 C 12,8 C 74 % 1014,2 hPa 0,0 l/m 2 min 0 min 198 W/m 16,1 km/h (3 Bft) 100,00 %
15.05.2023 18:52 17,2 C 17,2 C 12,8 C 74 % 1014,2 hPa 0,0 l/m 0 min 0 min 167 W/m 16,1 km/h (3 Bft) 100,00 %
15.05.2023 18:54 17,1 C 16,7 C 12,8 C 75 % 1014,2 hPa 0,0 l/m 0 min 0 min 141 W/m 29,0 km/h (5 Bft) 97,87 %
15.05.2023 18:56 17,1 C 16,7 C 12,8 C 75 % 1014,2 hPa 0,0 l/m 0 min 0 min 128 W/m 25,7 km/h (4 Bft) 100,00 %
15.05.2023 18:58 17,1 C 16,7 C 12,8 C 75 % 1014,3 hPa 0,0 l/m 0 min 0 min 124 W/m 16,1 km/h (3 Bft) 100,00 %
15.05.2023 19:00 17,0 C 16,7 C 12,8 C 76 % 1014,2 hPa 0,0 l/m 0 min 0 min 138 W/m 19,3 km/h (3 Bft) 100,00 %
15.05.2023 19:02 16,9 C 16,7 C 12,8 C 76 % 1014,3 hPa 0,0 l/m 0 min 0 min 128 W/m 16,1 km/h (3 Bft) 97,87 %
15.05.2023 19:04 16,9 C 16,7 C 12,8 C 75 % 1014,2 hPa 0,0 l/m 0 min 0 min 128 W/m 22,5 km/h (4 Bft) 100,00 %
15.05.2023 19:06 16,8 C 16,7 C 12,8 C 76 % 1014,4 hPa 0,0 l/m 0 min 0 min 129 W/m 16,1 km/h (3 Bft) 100,00 %
15.05.2023 19:08 16,8 C 16,7 C 12,8 C 76 % 1014,3 hPa 0,0 l/m 0 min 0 min 126 W/m 22,5 km/h (4 Bft) 97,87 %
15.05.2023 19:10 16,7 C 16,1 C 12,2 C 76 % 1014,3 hPa 0,0 l/m 0 min 0 min 125 W/m 12,9 km/h (3 Bft) 100,00 %
15.05.2023 19:12 16,6 C 16,1 C 12,2 C 76 % 1014,4 hPa 0,0 l/m 0 min 0 min 121 W/m 25,7 km/h (4 Bft) 100,00 %
15.05.2023 19:14 16,5 C 16,1 C 12,2 C 76 % 1014,4 hPa 0,0 l/m 0 min 0 min 108 W/m 16,1 km/h (3 Bft) 97,87 %
15.05.2023 19:16 16,4 C 15,6 C 12,2 C 76 % 1014,4 hPa 0,0 l/m 0 min 0 min 100 W/m 19,3 km/h (3 Bft) 97,87 %
15.05.2023 19:18 16,3 C 15,6 C 12,2 C 77 % 1014,5 hPa 0,0 l/m 0 min 0 min 97 W/m 16,1 km/h (3 Bft) 95,74 %
15.05.2023 19:20 16,3 C 15,6 C 12,2 C 77 % 1014,5 hPa 0,0 l/m 0 min 0 min 95 W/m 12,9 km/h (3 Bft) 97,87 %
15.05.2023 19:22 16,3 C 15,6 C 12,2 C 77 % 1014,4 hPa 0,0 l/m 0 min 0 min 94 W/m 16,1 km/h (3 Bft) 97,83 %
15.05.2023 19:24 16,3 C 15,6 C 12,2 C 77 % 1014,5 hPa 0,0 l/m 0 min 0 min 91 W/m 16,1 km/h (3 Bft) 95,74 %
15.05.2023 19:26 16,3 C 15,6 C 12,2 C 78 % 1014,5 hPa 0,0 l/m 0 min 0 min 85 W/m 9,7 km/h (2 Bft) 97,87 %
15.05.2023 19:28 16,3 C 15,6 C 12,2 C 78 % 1014,5 hPa 0,0 l/m 0 min 0 min 79 W/m 12,9 km/h (3 Bft) 95,74 %
15.05.2023 19:30 16,3 C 15,6 C 12,2 C 78 % 1014,5 hPa 0,0 l/m 0 min 0 min 73 W/m 9,7 km/h (2 Bft) 93,62 %
15.05.2023 19:32 16,2 C 15,6 C 12,2 C 78 % 1014,5 hPa 0,0 l/m 0 min 0 min 65 W/m 16,1 km/h (3 Bft) 95,74 %
15.05.2023 19:34 16,2 C 15,6 C 12,2 C 78 % 1014,5 hPa 0,0 l/m 0 min 0 min 57 W/m 16,1 km/h (3 Bft) 95,74 %
15.05.2023 19:36 16,2 C 15,6 C 11,7 C 79 % 1014,5 hPa 0,0 l/m 0 min 0 min 50 W/m 19,3 km/h (3 Bft) 95,65 %
15.05.2023 19:38 16,1 C 15,6 C 11,7 C 79 % 1014,6 hPa 0,0 l/m 0 min 0 min 42 W/m 16,1 km/h (3 Bft) 95,74 %
15.05.2023 19:40 16,1 C 15,6 C 11,7 C 79 % 1014,6 hPa 0,0 l/m 0 min 0 min 36 W/m 12,9 km/h (3 Bft) 93,62 %
15.05.2023 19:42 16,1 C 15,6 C 11,7 C 79 % 1014,5 hPa 0,0 l/m 0 min 0 min 36 W/m 19,3 km/h (3 Bft) 95,74 %
15.05.2023 19:44 16,1 C 15,6 C 11,7 C 79 % 1014,6 hPa 0,0 l/m 0 min 0 min 44 W/m 32,2 km/h (5 Bft) 97,87 %
15.05.2023 19:46 15,9 C 15,0 C 11,7 C 79 % 1014,6 hPa 0,0 l/m 0 min 0 min 49 W/m 38,6 km/h (5 Bft) 97,87 %
15.05.2023 19:48 15,9 C 15,0 C 11,7 C 79 % 1014,6 hPa 0,0 l/m 0 min 0 min 48 W/m 25,7 km/h (4 Bft) 95,65 %
15.05.2023 19:50 15,8 C 15,0 C 11,7 C 79 % 1014,6 hPa 0,0 l/m 0 min 0 min 49 W/m 16,1 km/h (3 Bft) 97,87 %
15.05.2023 19:52 15,8 C 15,0 C 11,7 C 79 % 1014,7 hPa 0,0 l/m 0 min 0 min 52 W/m 16,1 km/h (3 Bft) 95,74 %
15.05.2023 19:54 15,8 C 15,0 C 11,7 C 79 % 1014,8 hPa 0,0 l/m 0 min 0 min 53 W/m 29,0 km/h (5 Bft) 100,00 %
15.05.2023 19:56 15,7 C 15,0 C 11,7 C 79 % 1014,8 hPa 0,0 l/m 0 min 0 min 53 W/m 22,5 km/h (4 Bft) 97,87 %
15.05.2023 19:58 15,7 C 15,0 C 11,7 C 79 % 1014,7 hPa 0,0 l/m 0 min 0 min 53 W/m 16,1 km/h (3 Bft) 97,87 %
15.05.2023 20:00 15,6 C 15,0 C 11,7 C 79 % 1014,8 hPa 0,0 l/m 0 min 0 min 54 W/m 22,5 km/h (4 Bft) 95,74 %
15.05.2023 20:02 15,6 C 15,0 C 11,1 C 79 % 1014,9 hPa 0,0 l/m 0 min 0 min 53 W/m 16,1 km/h (3 Bft) 95,65 %
15.05.2023 20:04 15,6 C 15,0 C 11,1 C 79 % 1014,8 hPa 0,0 l/m 0 min 0 min 53 W/m 41,8 km/h (6 Bft) 97,92 %
15.05.2023 20:06 15,5 C 15,0 C 11,1 C 79 % 1014,9 hPa 0,0 l/m 0 min 0 min 51 W/m 22,5 km/h (4 Bft) 97,87 %
15.05.2023 20:08 15,4 C 14,4 C 11,1 C 79 % 1014,9 hPa 0,0 l/m 0 min 0 min 48 W/m 29,0 km/h (5 Bft) 97,87 %
15.05.2023 20:10 15,4 C 14,4 C 11,1 C 79 % 1014,9 hPa 0,0 l/m 0 min 0 min 47 W/m 25,7 km/h (4 Bft) 95,74 %
15.05.2023 20:12 15,4 C 14,4 C 11,1 C 79 % 1015,0 hPa 0,0 l/m 0 min 0 min 46 W/m 12,9 km/h (3 Bft) 95,74 %
15.05.2023 20:14 15,3 C 14,4 C 11,1 C 79 % 1015,0 hPa 0,0 l/m 0 min 0 min 45 W/m 19,3 km/h (3 Bft) 100,00 %
15.05.2023 20:16 15,3 C 14,4 C 11,1 C 80 % 1014,9 hPa 0,0 l/m 0 min 0 min 42 W/m 22,5 km/h (4 Bft) 100,00 %
15.05.2023 20:18 15,3 C 14,4 C 11,1 C 80 % 1015,0 hPa 0,0 l/m 0 min 0 min 38 W/m 12,9 km/h (3 Bft) 100,00 %
15.05.2023 20:20 15,2 C 14,4 C 11,1 C 80 % 1015,1 hPa 0,0 l/m 0 min 0 min 34 W/m 19,3 km/h (3 Bft) 97,87 %
15.05.2023 20:22 15,1 C 14,4 C 10,6 C 80 % 1015,1 hPa 0,0 l/m 0 min 0 min 30 W/m 22,5 km/h (4 Bft) 100,00 %
15.05.2023 20:24 15,0 C 13,9 C 10,6 C 79 % 1015,1 hPa 0,0 l/m 0 min 0 min 27 W/m 25,7 km/h (4 Bft) 100,00 %
15.05.2023 20:26 14,9 C 13,9 C 10,6 C 80 % 1015,2 hPa 0,0 l/m 0 min 0 min 22 W/m 22,5 km/h (4 Bft) 100,00 %
15.05.2023 20:28 14,9 C 13,9 C 10,6 C 80 % 1015,2 hPa 0,0 l/m 0 min 0 min 17 W/m 16,1 km/h (3 Bft) 97,83 %
15.05.2023 20:30 14,8 C 13,9 C 10,6 C 80 % 1015,2 hPa 0,0 l/m 0 min 0 min 14 W/m 29,0 km/h (5 Bft) 100,00 %
15.05.2023 20:32 14,8 C 13,9 C 10,6 C 80 % 1015,3 hPa 0,0 l/m 0 min 0 min 12 W/m 29,0 km/h (5 Bft) 100,00 %
15.05.2023 20:34 14,8 C 13,9 C 10,6 C 81 % 1015,2 hPa 0,0 l/m 0 min 0 min 11 W/m 25,7 km/h (4 Bft) 100,00 %
15.05.2023 20:36 14,7 C 13,9 C 10,6 C 81 % 1015,3 hPa 0,0 l/m 0 min 0 min 9 W/m 19,3 km/h (3 Bft) 100,00 %
15.05.2023 20:38 14,6 C 13,9 C 10,6 C 81 % 1015,3 hPa 0,0 l/m 0 min 0 min 7 W/m 22,5 km/h (4 Bft) 100,00 %
15.05.2023 20:40 14,6 C 13,9 C 10,6 C 81 % 1015,3 hPa 0,0 l/m 0 min 0 min 5 W/m 16,1 km/h (3 Bft) 100,00 %
15.05.2023 20:42 14,4 C 13,3 C 10,0 C 81 % 1015,4 hPa 0,0 l/m 0 min 0 min 5 W/m 25,7 km/h (4 Bft) 100,00 %
15.05.2023 20:44 14,4 C 13,3 C 10,0 C 81 % 1015,5 hPa 0,0 l/m 0 min 0 min 6 W/m 12,9 km/h (3 Bft) 100,00 %
15.05.2023 20:46 14,3 C 13,3 C 10,0 C 82 % 1015,5 hPa 0,0 l/m 0 min 0 min 7 W/m 25,7 km/h (4 Bft) 100,00 %
15.05.2023 20:48 14,3 C 13,3 C 10,6 C 82 % 1015,5 hPa 0,0 l/m 0 min 0 min 6 W/m 12,9 km/h (3 Bft) 100,00 %
15.05.2023 20:50 14,3 C 13,3 C 10,0 C 82 % 1015,6 hPa 0,0 l/m 0 min 0 min 2 W/m 19,3 km/h (3 Bft) 97,87 %
15.05.2023 20:52 14,3 C 13,3 C 10,0 C 82 % 1015,7 hPa 0,0 l/m 0 min 0 min 0 W/m 16,1 km/h (3 Bft) 97,87 %
15.05.2023 20:54 14,3 C 13,3 C 10,0 C 82 % 1015,7 hPa 0,0 l/m 0 min 0 min 0 W/m 25,7 km/h (4 Bft) 97,83 %
15.05.2023 20:56 14,2 C 13,3 C 10,0 C 82 % 1015,6 hPa 0,0 l/m 0 min 0 min 1 W/m 25,7 km/h (4 Bft) 93,62 %
15.05.2023 20:58 14,1 C 13,3 C 10,0 C 83 % 1015,7 hPa 0,0 l/m 0 min 0 min 1 W/m 16,1 km/h (3 Bft) 97,87 %
15.05.2023 21:00 14,1 C 13,3 C 10,0 C 82 % 1015,6 hPa 0,0 l/m 0 min 0 min 0 W/m 22,5 km/h (4 Bft) 97,87 %
15.05.2023 21:02 14,1 C 13,3 C 10,0 C 82 % 1015,7 hPa 0,0 l/m 0 min 0 min 0 W/m 19,3 km/h (3 Bft) 94,29 %
15.05.2023 21:04 14,0 C 13,3 C 10,0 C 82 % 1015,7 hPa 0,0 l/m 0 min 0 min 0 W/m 16,1 km/h (3 Bft) 96,55 %
15.05.2023 21:06 13,9 C 13,3 C 10,0 C 82 % 1015,7 hPa 0,0 l/m 0 min 0 min 0 W/m 19,3 km/h (3 Bft) 95,74 %
15.05.2023 21:08 13,9 C 13,3 C 10,0 C 82 % 1015,8 hPa 0,0 l/m 0 min 0 min 0 W/m 19,3 km/h (3 Bft) 95,74 %
15.05.2023 21:10 13,9 C 13,3 C 10,0 C 83 % 1015,8 hPa 0,0 l/m 0 min 0 min 0 W/m 16,1 km/h (3 Bft) 93,62 %
15.05.2023 21:12 13,9 C 13,3 C 10,0 C 83 % 1015,8 hPa 0,0 l/m 0 min 0 min 0 W/m 19,3 km/h (3 Bft) 93,62 %
15.05.2023 21:14 13,8 C 13,3 C 10,0 C 83 % 1015,8 hPa 0,0 l/m 0 min 0 min 0 W/m 19,3 km/h (3 Bft) 91,30 %
15.05.2023 21:16 13,8 C 12,8 C 9,4 C 83 % 1015,8 hPa 0,0 l/m 0 min 0 min 0 W/m 22,5 km/h (4 Bft) 95,74 %
15.05.2023 21:18 13,8 C 12,8 C 10,0 C 83 % 1015,8 hPa 0,0 l/m 0 min 0 min 0 W/m 12,9 km/h (3 Bft) 95,74 %
15.05.2023 21:20 13,8 C 12,8 C 10,0 C 83 % 1015,8 hPa 0,0 l/m 0 min 0 min 0 W/m 16,1 km/h (3 Bft) 95,74 %
15.05.2023 21:22 13,7 C 13,3 C 9,4 C 83 % 1015,9 hPa 0,0 l/m 0 min 0 min 0 W/m 9,7 km/h (2 Bft) 95,74 %
15.05.2023 21:24 13,7 C 12,8 C 9,4 C 83 % 1015,9 hPa 0,0 l/m 0 min 0 min 0 W/m 19,3 km/h (3 Bft) 97,87 %
15.05.2023 21:26 13,7 C 12,8 C 9,4 C 83 % 1015,9 hPa 0,0 l/m 0 min 0 min 0 W/m 19,3 km/h (3 Bft) 95,65 %
15.05.2023 21:28 13,7 C 12,8 C 10,0 C 83 % 1015,9 hPa 0,0 l/m 0 min 0 min 0 W/m 16,1 km/h (3 Bft) 95,74 %
15.05.2023 21:30 13,6 C 12,8 C 10,0 C 82 % 1016,0 hPa 0,0 l/m 0 min 0 min 0 W/m 12,9 km/h (3 Bft) 95,74 %
15.05.2023 21:32 13,6 C 12,8 C 10,0 C 83 % 1016,0 hPa 0,0 l/m 0 min 0 min 0 W/m 16,1 km/h (3 Bft) 93,62 %
15.05.2023 21:34 13,6 C 12,8 C 9,4 C 83 % 1016,0 hPa 0,0 l/m 0 min 0 min 0 W/m 16,1 km/h (3 Bft) 97,87 %
15.05.2023 21:36 13,6 C 12,8 C 9,4 C 82 % 1016,1 hPa 0,0 l/m 0 min 0 min 0 W/m 16,1 km/h (3 Bft) 97,87 %
15.05.2023 21:38 13,6 C 12,8 C 9,4 C 82 % 1016,1 hPa 0,0 l/m 0 min 0 min 0 W/m 19,3 km/h (3 Bft) 97,87 %
15.05.2023 21:40 13,5 C 12,8 C 9,4 C 82 % 1016,1 hPa 0,0 l/m 0 min 0 min 0 W/m 19,3 km/h (3 Bft) 97,83 %
15.05.2023 21:42 13,4 C 12,8 C 9,4 C 82 % 1016,1 hPa 0,0 l/m 0 min 0 min 0 W/m 22,5 km/h (4 Bft) 97,87 %
15.05.2023 21:44 13,4 C 12,8 C 9,4 C 82 % 1016,0 hPa 0,0 l/m 0 min 0 min 0 W/m 12,9 km/h (3 Bft) 97,87 %
15.05.2023 21:46 13,4 C 12,8 C 9,4 C 83 % 1016,0 hPa 0,0 l/m 0 min 0 min 0 W/m 12,9 km/h (3 Bft) 100,00 %
15.05.2023 21:48 13,4 C 12,8 C 9,4 C 83 % 1016,1 hPa 0,0 l/m 0 min 0 min 0 W/m 12,9 km/h (3 Bft) 100,00 %
15.05.2023 21:50 13,4 C 12,8 C 9,4 C 83 % 1016,1 hPa 0,0 l/m 0 min 0 min 0 W/m 9,7 km/h (2 Bft) 100,00 %
15.05.2023 21:52 13,4 C 12,8 C 9,4 C 83 % 1016,2 hPa 0,0 l/m 0 min 0 min 0 W/m 12,9 km/h (3 Bft) 100,00 %
15.05.2023 21:54 13,3 C 12,8 C 9,4 C 83 % 1016,2 hPa 0,0 l/m 0 min 0 min 0 W/m 12,9 km/h (3 Bft) 95,65 %
15.05.2023 21:56 13,3 C 12,8 C 9,4 C 83 % 1016,2 hPa 0,0 l/m 0 min 0 min 0 W/m 9,7 km/h (2 Bft) 95,74 %
15.05.2023 21:58 13,3 C 12,8 C 9,4 C 83 % 1016,2 hPa 0,0 l/m 0 min 0 min 0 W/m 9,7 km/h (2 Bft) 100,00 %
15.05.2023 22:00 13,3 C 12,8 C 9,4 C 83 % 1016,2 hPa 0,0 l/m 0 min 0 min 0 W/m 12,9 km/h (3 Bft) 100,00 %
15.05.2023 22:02 13,3 C 12,8 C 9,4 C 83 % 1016,3 hPa 0,0 l/m 0 min 0 min 0 W/m 12,9 km/h (3 Bft) 100,00 %
15.05.2023 22:04 13,3 C 12,8 C 9,4 C 83 % 1016,3 hPa 0,0 l/m 0 min 0 min 0 W/m 9,7 km/h (2 Bft) 95,74 %
15.05.2023 22:06 13,3 C 12,8 C 9,4 C 83 % 1016,3 hPa 0,0 l/m 0 min 0 min 0 W/m 12,9 km/h (3 Bft) 100,00 %
15.05.2023 22:08 13,3 C 12,8 C 9,4 C 83 % 1016,2 hPa 0,0 l/m 0 min 0 min 0 W/m 9,7 km/h (2 Bft) 100,00 %
15.05.2023 22:10 13,3 C 12,8 C 9,4 C 83 % 1016,3 hPa 0,0 l/m 0 min 0 min 0 W/m 16,1 km/h (3 Bft) 100,00 %
15.05.2023 22:12 13,3 C 12,8 C 9,4 C 83 % 1016,3 hPa 0,0 l/m 0 min 0 min 0 W/m 16,1 km/h (3 Bft) 97,92 %
15.05.2023 22:14 13,3 C 12,8 C 9,4 C 83 % 1016,3 hPa 0,0 l/m 0 min 0 min 0 W/m 16,1 km/h (3 Bft) 97,87 %
15.05.2023 22:16 13,2 C 12,8 C 9,4 C 83 % 1016,4 hPa 0,0 l/m 0 min 0 min 0 W/m 12,9 km/h (3 Bft) 97,87 %
15.05.2023 22:18 13,2 C 12,8 C 9,4 C 83 % 1016,3 hPa 0,0 l/m 0 min 0 min 0 W/m 16,1 km/h (3 Bft) 97,87 %
15.05.2023 22:20 13,2 C 12,2 C 9,4 C 83 % 1016,4 hPa 0,0 l/m 0 min 0 min 0 W/m 16,1 km/h (3 Bft) 95,65 %
15.05.2023 22:22 13,2 C 12,2 C 9,4 C 83 % 1016,4 hPa 0,0 l/m 0 min 0 min 0 W/m 12,9 km/h (3 Bft) 94,59 %
15.05.2023 22:24 13,2 C 12,2 C 9,4 C 83 % 1016,4 hPa 0,0 l/m 0 min 0 min 0 W/m 12,9 km/h (3 Bft) 95,74 %
15.05.2023 22:26 13,2 C 12,2 C 8,9 C 83 % 1016,3 hPa 0,0 l/m 0 min 0 min 0 W/m 16,1 km/h (3 Bft) 97,87 %
15.05.2023 22:28 13,1 C 12,2 C 9,4 C 83 % 1016,4 hPa 0,0 l/m 0 min 0 min 0 W/m 12,9 km/h (3 Bft) 97,83 %
15.05.2023 22:30 13,1 C 12,2 C 9,4 C 83 % 1016,3 hPa 0,0 l/m 0 min 0 min 0 W/m 12,9 km/h (3 Bft) 95,74 %
15.05.2023 22:32 13,1 C 12,2 C 9,4 C 83 % 1016,4 hPa 0,0 l/m 0 min 0 min 0 W/m 12,9 km/h (3 Bft) 97,87 %
15.05.2023 22:34 13,1 C 12,2 C 9,4 C 83 % 1016,4 hPa 0,0 l/m 0 min 0 min 0 W/m 9,7 km/h (2 Bft) 97,87 %
15.05.2023 22:36 13,0 C 12,2 C 8,9 C 84 % 1016,4 hPa 0,0 l/m 0 min 0 min 0 W/m 16,1 km/h (3 Bft) 97,87 %
15.05.2023 22:38 13,0 C 12,2 C 8,9 C 84 % 1016,4 hPa 0,0 l/m 0 min 0 min 0 W/m 12,9 km/h (3 Bft) 97,87 %
15.05.2023 22:40 12,9 C 12,2 C 8,9 C 84 % 1016,5 hPa 0,0 l/m 0 min 0 min 0 W/m 19,3 km/h (3 Bft) 97,87 %
15.05.2023 22:42 12,9 C 12,2 C 8,9 C 84 % 1016,5 hPa 0,0 l/m 0 min 0 min 0 W/m 16,1 km/h (3 Bft) 97,83 %
15.05.2023 22:44 12,9 C 12,2 C 8,9 C 84 % 1016,4 hPa 0,0 l/m 0 min 0 min 0 W/m 12,9 km/h (3 Bft) 97,87 %
15.05.2023 22:46 12,8 C 12,2 C 8,9 C 84 % 1016,4 hPa 0,0 l/m 0 min 0 min 0 W/m 12,9 km/h (3 Bft) 95,74 %
15.05.2023 22:48 12,8 C 11,7 C 8,9 C 85 % 1016,5 hPa 0,0 l/m 0 min 0 min 0 W/m 12,9 km/h (3 Bft) 97,87 %
15.05.2023 22:50 12,8 C 12,2 C 8,9 C 85 % 1016,4 hPa 0,0 l/m 0 min 0 min 0 W/m 9,7 km/h (2 Bft) 97,87 %
15.05.2023 22:52 12,8 C 11,7 C 8,9 C 85 % 1016,4 hPa 0,0 l/m 0 min 0 min 0 W/m 19,3 km/h (3 Bft) 95,74 %
15.05.2023 22:54 12,7 C 11,7 C 8,9 C 85 % 1016,5 hPa 0,0 l/m 0 min 0 min 0 W/m 9,7 km/h (2 Bft) 95,74 %
15.05.2023 22:56 12,7 C 11,7 C 8,9 C 85 % 1016,5 hPa 0,0 l/m 0 min 0 min 0 W/m 6,4 km/h (2 Bft) 95,65 %
15.05.2023 22:58 12,7 C 12,2 C 8,9 C 85 % 1016,5 hPa 0,0 l/m 0 min 0 min 0 W/m 19,3 km/h (3 Bft) 95,74 %
15.05.2023 23:00 12,7 C 11,7 C 8,9 C 85 % 1016,4 hPa 0,0 l/m 0 min 0 min 0 W/m 19,3 km/h (3 Bft) 97,87 %
15.05.2023 23:02 12,7 C 11,7 C 8,9 C 86 % 1016,4 hPa 0,0 l/m 0 min 0 min 0 W/m 12,9 km/h (3 Bft) 97,87 %
15.05.2023 23:04 12,6 C 11,7 C 8,3 C 86 % 1016,4 hPa 0,0 l/m 0 min 0 min 0 W/m 16,1 km/h (3 Bft) 97,96 %
15.05.2023 23:06 12,6 C 11,7 C 8,3 C 86 % 1016,4 hPa 0,0 l/m 0 min 0 min 0 W/m 12,9 km/h (3 Bft) 94,83 %
15.05.2023 23:08 12,6 C 11,7 C 8,3 C 86 % 1016,5 hPa 0,0 l/m 0 min 0 min 0 W/m 9,7 km/h (2 Bft) 100,00 %
15.05.2023 23:10 12,6 C 11,7 C 8,9 C 86 % 1016,4 hPa 0,0 l/m 0 min 0 min 0 W/m 9,7 km/h (2 Bft) 97,87 %
15.05.2023 23:12 12,6 C 11,7 C 8,9 C 87 % 1016,5 hPa 0,0 l/m 0 min 0 min 0 W/m 12,9 km/h (3 Bft) 97,87 %
15.05.2023 23:14 12,6 C 11,7 C 8,3 C 87 % 1016,5 hPa 0,0 l/m 0 min 0 min 0 W/m 16,1 km/h (3 Bft) 97,87 %
15.05.2023 23:16 12,6 C 11,7 C 8,3 C 87 % 1016,5 hPa 0,0 l/m 0 min 0 min 0 W/m 16,1 km/h (3 Bft) 96,36 %
15.05.2023 23:18 12,6 C 11,7 C 8,3 C 87 % 1016,5 hPa 0,0 l/m 0 min 0 min 0 W/m 6,4 km/h (2 Bft) 97,37 %
15.05.2023 23:20 12,6 C 11,7 C 8,3 C 87 % 1016,5 hPa 0,0 l/m 0 min 0 min 0 W/m 9,7 km/h (2 Bft) 100,00 %
15.05.2023 23:22 12,6 C 11,7 C 8,3 C 87 % 1016,5 hPa 0,0 l/m 0 min 0 min 0 W/m 22,5 km/h (4 Bft) 100,00 %
15.05.2023 23:24 12,5 C 11,7 C 8,3 C 88 % 1016,5 hPa 0,0 l/m 0 min 0 min 0 W/m 16,1 km/h (3 Bft) 100,00 %
15.05.2023 23:26 12,5 C 11,7 C 8,3 C 88 % 1016,5 hPa 0,0 l/m 0 min 0 min 0 W/m 9,7 km/h (2 Bft) 100,00 %
15.05.2023 23:28 12,5 C 11,7 C 8,3 C 88 % 1016,5 hPa 0,0 l/m 0 min 0 min 0 W/m 19,3 km/h (3 Bft) 100,00 %
15.05.2023 23:30 12,4 C 11,7 C 8,3 C 89 % 1016,5 hPa 0,0 l/m 0 min 0 min 0 W/m 9,7 km/h (2 Bft) 100,00 %
15.05.2023 23:32 12,4 C 11,7 C 8,3 C 89 % 1016,5 hPa 0,0 l/m 0 min 0 min 0 W/m 16,1 km/h (3 Bft) 100,00 %
15.05.2023 23:34 12,4 C 11,7 C 8,3 C 89 % 1016,5 hPa 0,0 l/m 0 min 0 min 0 W/m 12,9 km/h (3 Bft) 97,87 %
15.05.2023 23:36 12,4 C 11,7 C 8,3 C 89 % 1016,5 hPa 0,0 l/m 0 min 0 min 0 W/m 16,1 km/h (3 Bft) 97,87 %
15.05.2023 23:38 12,3 C 11,7 C 8,3 C 89 % 1016,5 hPa 0,0 l/m 0 min 0 min 0 W/m 12,9 km/h (3 Bft) 100,00 %
15.05.2023 23:40 12,3 C 11,7 C 8,3 C 89 % 1016,5 hPa 0,0 l/m 0 min 0 min 0 W/m 16,1 km/h (3 Bft) 100,00 %
15.05.2023 23:42 12,3 C 11,7 C 8,3 C 89 % 1016,5 hPa 0,0 l/m 0 min 0 min 0 W/m 9,7 km/h (2 Bft) 97,87 %
15.05.2023 23:44 12,3 C 11,7 C 8,3 C 89 % 1016,5 hPa 0,0 l/m 0 min 0 min 0 W/m 12,9 km/h (3 Bft) 100,00 %
15.05.2023 23:46 12,3 C 11,7 C 8,3 C 90 % 1016,6 hPa 0,0 l/m 0 min 0 min 0 W/m 9,7 km/h (2 Bft) 100,00 %
15.05.2023 23:48 12,3 C 11,7 C 8,3 C 89 % 1016,6 hPa 0,0 l/m 0 min 0 min 0 W/m 16,1 km/h (3 Bft) 100,00 %
15.05.2023 23:50 12,2 C 11,7 C 8,3 C 90 % 1016,6 hPa 0,0 l/m 0 min 0 min 0 W/m 12,9 km/h (3 Bft) 100,00 %
15.05.2023 23:52 12,2 C 11,7 C 8,3 C 90 % 1016,7 hPa 0,0 l/m 0 min 0 min 0 W/m 12,9 km/h (3 Bft) 100,00 %
15.05.2023 23:54 12,2 C 11,7 C 8,3 C 90 % 1016,7 hPa 0,0 l/m 0 min 0 min 0 W/m 16,1 km/h (3 Bft) 100,00 %
15.05.2023 23:56 12,2 C 11,7 C 8,3 C 90 % 1016,7 hPa 0,0 l/m 0 min 0 min 0 W/m 19,3 km/h (3 Bft) 100,00 %
15.05.2023 23:58 12,2 C 11,7 C 8,3 C 90 % 1016,7 hPa 0,0 l/m 0 min 0 min 0 W/m 16,1 km/h (3 Bft) 100,00 %
_ Min-Zeit 06:42 06:16 04:12 13:46 14:26 - - - - 02:46 00:02
Minimum _ 11,4 C 10,6 C 7,8 C 51 % 1013,3 hPa - - - - 0,0 km/h (0 Bft) 9,52 %
_ Max-Zeit 14:48 14:00 12:42 04:42 23:52 00:00 08:31 00:00 14:44 20:04 00:14
Maximum _ 22,0 C 28,9 C 23,9 C 95 % 1016,7 hPa 0,0 l/m 5 min 0 min 1000 W/m 41,8 km/h
N (6 Bft)
100,00 %
Durchschnitt _ 15,3 C 16,1 C 11,7 C 80 % 1014,6 hPa #0,0 l/m #8:45 h #0 min. 415 W/m 13,4 km/h (3 Bft) 97,37 %
© 2023 W. Hausmann